<?xml version="1.0" encoding="UTF-8"?>
<gpx xmlns="http://www.topografix.com/GPX/1/1" xmlns:gpsies="https://www.gpsies.com/GPX/1/0" creator="GPSies https://www.gpsies.com - mishlatim-zuba" version="1.1" xmlns:xsi="http://www.w3.org/2001/XMLSchema-instance" xsi:schemaLocation="http://www.topografix.com/GPX/1/1 http://www.topografix.com/GPX/1/1/gpx.xsd https://www.gpsies.com/GPX/1/0 https://www.gpsies.com/gpsies.xsd">
  <metadata>
    <name>mishlatim-zuba</name>
    <author>
      <name>igor968</name>
      <link href="https://www.gpsies.com/mapUser.do?username=igor968">
        <text>igor968 on GPSies.com</text>
        <type>GPSiesUserOnWeb</type>
      </link>
    </author>
    <link href="https://www.gpsies.com/map.do?fileId=rjetkescbfgovkjv">
      <text>mishlatim-zuba on GPSies.com</text>
      <type>trackOnWeb</type>
    </link>
    <time>2018-07-12T18:34:44Z</time>
    <extensions>
      <gpsies:property>round trip</gpsies:property>
      <gpsies:trackLengthMeter>27997.986846940352</gpsies:trackLengthMeter>
      <gpsies:totalAscentMeter>644.0</gpsies:totalAscentMeter>
      <gpsies:totalDescentMeter>644.0</gpsies:totalDescentMeter>
      <gpsies:minHeightMeter>264.0</gpsies:minHeightMeter>
      <gpsies:maxHeightMeter>626.0</gpsies:maxHeightMeter>
    </extensions>
  </metadata>
  <trk>
    <name>mishlatim-zuba on GPSies.com</name>
    <link href="https://www.gpsies.com/map.do?fileId=rjetkescbfgovkjv">
      <type>trackOnWeb</type>
    </link>
    <link href="https://www.gpsies.com/charts/rj/map/rjetkescbfgovkjv_map.png">
      <type>elevationChartUrlMap</type>
    </link>
    <link href="https://www.gpsies.com/charts/rj/mapThumb/rjetkescbfgovkjv_mapThumb.png">
      <type>elevationChartUrlMapThumb</type>
    </link>
    <link href="https://www.gpsies.com/charts/rj/tab/rjetkescbfgovkjv_tab.png">
      <type>elevationChartUrlTab</type>
    </link>
    <trkseg>
      <trkpt lat="31.81143580" lon="35.01315410">
        <ele>288.00000</ele>
        <time>2010-01-01T00:00:00Z</time>
      </trkpt>
      <trkpt lat="31.81125340" lon="35.01368520">
        <ele>290.00000</ele>
        <time>2010-01-01T00:00:19Z</time>
      </trkpt>
      <trkpt lat="31.81052400" lon="35.01496190">
        <ele>295.00000</ele>
        <time>2010-01-01T00:01:11Z</time>
      </trkpt>
      <trkpt lat="31.81032350" lon="35.01556270">
        <ele>293.00000</ele>
        <time>2010-01-01T00:01:33Z</time>
      </trkpt>
      <trkpt lat="31.81015020" lon="35.01612060">
        <ele>294.00000</ele>
        <time>2010-01-01T00:01:53Z</time>
      </trkpt>
      <trkpt lat="31.80980380" lon="35.01712910">
        <ele>298.00000</ele>
        <time>2010-01-01T00:02:30Z</time>
      </trkpt>
      <trkpt lat="31.80960320" lon="35.01775140">
        <ele>298.00000</ele>
        <time>2010-01-01T00:02:53Z</time>
      </trkpt>
      <trkpt lat="31.80950290" lon="35.01823420">
        <ele>300.00000</ele>
        <time>2010-01-01T00:03:10Z</time>
      </trkpt>
      <trkpt lat="31.80996000" lon="35.01838000">
        <ele>301.00000</ele>
        <time>2010-01-01T00:03:29Z</time>
      </trkpt>
      <trkpt lat="31.81011000" lon="35.01849000">
        <ele>302.00000</ele>
        <time>2010-01-01T00:03:36Z</time>
      </trkpt>
      <trkpt lat="31.81017000" lon="35.01857000">
        <ele>303.00000</ele>
        <time>2010-01-01T00:03:40Z</time>
      </trkpt>
      <trkpt lat="31.81034000" lon="35.01896000">
        <ele>306.00000</ele>
        <time>2010-01-01T00:03:55Z</time>
      </trkpt>
      <trkpt lat="31.81034000" lon="35.01895000">
        <ele>306.00000</ele>
        <time>2010-01-01T00:03:55Z</time>
      </trkpt>
      <trkpt lat="31.81050000" lon="35.01930000">
        <ele>309.00000</ele>
        <time>2010-01-01T00:04:08Z</time>
      </trkpt>
      <trkpt lat="31.81060000" lon="35.01940000">
        <ele>309.00000</ele>
        <time>2010-01-01T00:04:14Z</time>
      </trkpt>
      <trkpt lat="31.81203000" lon="35.02031000">
        <ele>319.00000</ele>
        <time>2010-01-01T00:05:19Z</time>
      </trkpt>
      <trkpt lat="31.81202000" lon="35.02031000">
        <ele>319.00000</ele>
        <time>2010-01-01T00:05:19Z</time>
      </trkpt>
      <trkpt lat="31.81354000" lon="35.02129000">
        <ele>316.00000</ele>
        <time>2010-01-01T00:06:29Z</time>
      </trkpt>
      <trkpt lat="31.81378000" lon="35.02146000">
        <ele>314.00000</ele>
        <time>2010-01-01T00:06:40Z</time>
      </trkpt>
      <trkpt lat="31.81393000" lon="35.02166000">
        <ele>312.00000</ele>
        <time>2010-01-01T00:06:49Z</time>
      </trkpt>
      <trkpt lat="31.81393000" lon="35.02165000">
        <ele>312.00000</ele>
        <time>2010-01-01T00:06:49Z</time>
      </trkpt>
      <trkpt lat="31.81397000" lon="35.02176000">
        <ele>311.00000</ele>
        <time>2010-01-01T00:06:53Z</time>
      </trkpt>
      <trkpt lat="31.81415000" lon="35.02247000">
        <ele>309.00000</ele>
        <time>2010-01-01T00:07:18Z</time>
      </trkpt>
      <trkpt lat="31.81447000" lon="35.02282000">
        <ele>305.00000</ele>
        <time>2010-01-01T00:07:36Z</time>
      </trkpt>
      <trkpt lat="31.81463000" lon="35.02295000">
        <ele>305.00000</ele>
        <time>2010-01-01T00:07:44Z</time>
      </trkpt>
      <trkpt lat="31.81462000" lon="35.02295000">
        <ele>305.00000</ele>
        <time>2010-01-01T00:07:44Z</time>
      </trkpt>
      <trkpt lat="31.81487000" lon="35.02315000">
        <ele>304.00000</ele>
        <time>2010-01-01T00:07:56Z</time>
      </trkpt>
      <trkpt lat="31.81496000" lon="35.02296000">
        <ele>303.00000</ele>
        <time>2010-01-01T00:08:04Z</time>
      </trkpt>
      <trkpt lat="31.81503000" lon="35.02273000">
        <ele>302.00000</ele>
        <time>2010-01-01T00:08:12Z</time>
      </trkpt>
      <trkpt lat="31.81530000" lon="35.02253000">
        <ele>300.00000</ele>
        <time>2010-01-01T00:08:25Z</time>
      </trkpt>
      <trkpt lat="31.81549000" lon="35.02266000">
        <ele>299.00000</ele>
        <time>2010-01-01T00:08:34Z</time>
      </trkpt>
      <trkpt lat="31.81573000" lon="35.02291000">
        <ele>298.00000</ele>
        <time>2010-01-01T00:08:46Z</time>
      </trkpt>
      <trkpt lat="31.81635000" lon="35.02237000">
        <ele>295.00000</ele>
        <time>2010-01-01T00:09:17Z</time>
      </trkpt>
      <trkpt lat="31.81729000" lon="35.02157000">
        <ele>283.00000</ele>
        <time>2010-01-01T00:10:04Z</time>
      </trkpt>
      <trkpt lat="31.81758000" lon="35.02143000">
        <ele>283.00000</ele>
        <time>2010-01-01T00:10:16Z</time>
      </trkpt>
      <trkpt lat="31.81773000" lon="35.02111000">
        <ele>281.00000</ele>
        <time>2010-01-01T00:10:29Z</time>
      </trkpt>
      <trkpt lat="31.81799000" lon="35.02106000">
        <ele>281.00000</ele>
        <time>2010-01-01T00:10:39Z</time>
      </trkpt>
      <trkpt lat="31.81814000" lon="35.02105000">
        <ele>281.00000</ele>
        <time>2010-01-01T00:10:45Z</time>
      </trkpt>
      <trkpt lat="31.81876000" lon="35.02113000">
        <ele>280.00000</ele>
        <time>2010-01-01T00:11:10Z</time>
      </trkpt>
      <trkpt lat="31.81905000" lon="35.02122000">
        <ele>278.00000</ele>
        <time>2010-01-01T00:11:22Z</time>
      </trkpt>
      <trkpt lat="31.81913000" lon="35.02128000">
        <ele>278.00000</ele>
        <time>2010-01-01T00:11:26Z</time>
      </trkpt>
      <trkpt lat="31.81913000" lon="35.02127000">
        <ele>278.00000</ele>
        <time>2010-01-01T00:11:26Z</time>
      </trkpt>
      <trkpt lat="31.81922000" lon="35.02133000">
        <ele>277.00000</ele>
        <time>2010-01-01T00:11:30Z</time>
      </trkpt>
      <trkpt lat="31.81932000" lon="35.02147000">
        <ele>277.00000</ele>
        <time>2010-01-01T00:11:37Z</time>
      </trkpt>
      <trkpt lat="31.81938000" lon="35.02164000">
        <ele>277.00000</ele>
        <time>2010-01-01T00:11:43Z</time>
      </trkpt>
      <trkpt lat="31.81935000" lon="35.02167000">
        <ele>277.00000</ele>
        <time>2010-01-01T00:11:45Z</time>
      </trkpt>
      <trkpt lat="31.81933000" lon="35.02177000">
        <ele>278.00000</ele>
        <time>2010-01-01T00:11:48Z</time>
      </trkpt>
      <trkpt lat="31.81934000" lon="35.02181000">
        <ele>278.00000</ele>
        <time>2010-01-01T00:11:49Z</time>
      </trkpt>
      <trkpt lat="31.81936000" lon="35.02185000">
        <ele>278.00000</ele>
        <time>2010-01-01T00:11:51Z</time>
      </trkpt>
      <trkpt lat="31.81944000" lon="35.02188000">
        <ele>278.00000</ele>
        <time>2010-01-01T00:11:54Z</time>
      </trkpt>
      <trkpt lat="31.81949000" lon="35.02187000">
        <ele>278.00000</ele>
        <time>2010-01-01T00:11:56Z</time>
      </trkpt>
      <trkpt lat="31.81953000" lon="35.02194000">
        <ele>278.00000</ele>
        <time>2010-01-01T00:11:59Z</time>
      </trkpt>
      <trkpt lat="31.81958000" lon="35.02208000">
        <ele>280.00000</ele>
        <time>2010-01-01T00:12:04Z</time>
      </trkpt>
      <trkpt lat="31.81957000" lon="35.02219000">
        <ele>281.00000</ele>
        <time>2010-01-01T00:12:08Z</time>
      </trkpt>
      <trkpt lat="31.81957000" lon="35.02226000">
        <ele>282.00000</ele>
        <time>2010-01-01T00:12:11Z</time>
      </trkpt>
      <trkpt lat="31.81931000" lon="35.02254000">
        <ele>282.00000</ele>
        <time>2010-01-01T00:12:25Z</time>
      </trkpt>
      <trkpt lat="31.81913000" lon="35.02296000">
        <ele>282.00000</ele>
        <time>2010-01-01T00:12:41Z</time>
      </trkpt>
      <trkpt lat="31.81899000" lon="35.02337000">
        <ele>284.00000</ele>
        <time>2010-01-01T00:12:56Z</time>
      </trkpt>
      <trkpt lat="31.81900000" lon="35.02399000">
        <ele>287.00000</ele>
        <time>2010-01-01T00:13:17Z</time>
      </trkpt>
      <trkpt lat="31.81903000" lon="35.02418000">
        <ele>288.00000</ele>
        <time>2010-01-01T00:13:23Z</time>
      </trkpt>
      <trkpt lat="31.81903000" lon="35.02417000">
        <ele>288.00000</ele>
        <time>2010-01-01T00:13:24Z</time>
      </trkpt>
      <trkpt lat="31.81905000" lon="35.02441000">
        <ele>290.00000</ele>
        <time>2010-01-01T00:13:32Z</time>
      </trkpt>
      <trkpt lat="31.81885000" lon="35.02443000">
        <ele>288.00000</ele>
        <time>2010-01-01T00:13:40Z</time>
      </trkpt>
      <trkpt lat="31.81874000" lon="35.02451000">
        <ele>289.00000</ele>
        <time>2010-01-01T00:13:45Z</time>
      </trkpt>
      <trkpt lat="31.81860000" lon="35.02466000">
        <ele>290.00000</ele>
        <time>2010-01-01T00:13:53Z</time>
      </trkpt>
      <trkpt lat="31.81830000" lon="35.02507000">
        <ele>291.00000</ele>
        <time>2010-01-01T00:14:11Z</time>
      </trkpt>
      <trkpt lat="31.81806000" lon="35.02595000">
        <ele>293.00000</ele>
        <time>2010-01-01T00:14:43Z</time>
      </trkpt>
      <trkpt lat="31.81808000" lon="35.02623000">
        <ele>295.00000</ele>
        <time>2010-01-01T00:14:52Z</time>
      </trkpt>
      <trkpt lat="31.81816000" lon="35.02648000">
        <ele>296.00000</ele>
        <time>2010-01-01T00:15:01Z</time>
      </trkpt>
      <trkpt lat="31.81814000" lon="35.02696000">
        <ele>297.00000</ele>
        <time>2010-01-01T00:15:18Z</time>
      </trkpt>
      <trkpt lat="31.81805000" lon="35.02721000">
        <ele>299.00000</ele>
        <time>2010-01-01T00:15:27Z</time>
      </trkpt>
      <trkpt lat="31.81798000" lon="35.02749000">
        <ele>302.00000</ele>
        <time>2010-01-01T00:15:37Z</time>
      </trkpt>
      <trkpt lat="31.81751000" lon="35.02839000">
        <ele>305.00000</ele>
        <time>2010-01-01T00:16:13Z</time>
      </trkpt>
      <trkpt lat="31.81744000" lon="35.02880000">
        <ele>306.00000</ele>
        <time>2010-01-01T00:16:27Z</time>
      </trkpt>
      <trkpt lat="31.81731000" lon="35.02928000">
        <ele>308.00000</ele>
        <time>2010-01-01T00:16:44Z</time>
      </trkpt>
      <trkpt lat="31.81725000" lon="35.02961000">
        <ele>308.00000</ele>
        <time>2010-01-01T00:16:55Z</time>
      </trkpt>
      <trkpt lat="31.81725000" lon="35.02974000">
        <ele>309.00000</ele>
        <time>2010-01-01T00:17:00Z</time>
      </trkpt>
      <trkpt lat="31.81728000" lon="35.02992000">
        <ele>309.00000</ele>
        <time>2010-01-01T00:17:06Z</time>
      </trkpt>
      <trkpt lat="31.81728000" lon="35.02991000">
        <ele>309.00000</ele>
        <time>2010-01-01T00:17:06Z</time>
      </trkpt>
      <trkpt lat="31.81747000" lon="35.03068000">
        <ele>311.00000</ele>
        <time>2010-01-01T00:17:34Z</time>
      </trkpt>
      <trkpt lat="31.81751000" lon="35.03075000">
        <ele>311.00000</ele>
        <time>2010-01-01T00:17:37Z</time>
      </trkpt>
      <trkpt lat="31.81748000" lon="35.03079000">
        <ele>312.00000</ele>
        <time>2010-01-01T00:17:38Z</time>
      </trkpt>
      <trkpt lat="31.81744000" lon="35.03081000">
        <ele>312.00000</ele>
        <time>2010-01-01T00:17:40Z</time>
      </trkpt>
      <trkpt lat="31.81738000" lon="35.03081000">
        <ele>313.00000</ele>
        <time>2010-01-01T00:17:43Z</time>
      </trkpt>
      <trkpt lat="31.81732000" lon="35.03078000">
        <ele>313.00000</ele>
        <time>2010-01-01T00:17:45Z</time>
      </trkpt>
      <trkpt lat="31.81715000" lon="35.03050000">
        <ele>312.00000</ele>
        <time>2010-01-01T00:17:57Z</time>
      </trkpt>
      <trkpt lat="31.81703000" lon="35.03040000">
        <ele>312.00000</ele>
        <time>2010-01-01T00:18:03Z</time>
      </trkpt>
      <trkpt lat="31.81688000" lon="35.03033000">
        <ele>313.00000</ele>
        <time>2010-01-01T00:18:09Z</time>
      </trkpt>
      <trkpt lat="31.81667000" lon="35.03031000">
        <ele>317.00000</ele>
        <time>2010-01-01T00:18:18Z</time>
      </trkpt>
      <trkpt lat="31.81657000" lon="35.03032000">
        <ele>319.00000</ele>
        <time>2010-01-01T00:18:22Z</time>
      </trkpt>
      <trkpt lat="31.81628000" lon="35.03041000">
        <ele>324.00000</ele>
        <time>2010-01-01T00:18:34Z</time>
      </trkpt>
      <trkpt lat="31.81616000" lon="35.03043000">
        <ele>326.00000</ele>
        <time>2010-01-01T00:18:39Z</time>
      </trkpt>
      <trkpt lat="31.81604000" lon="35.03039000">
        <ele>328.00000</ele>
        <time>2010-01-01T00:18:44Z</time>
      </trkpt>
      <trkpt lat="31.81600000" lon="35.03032000">
        <ele>329.00000</ele>
        <time>2010-01-01T00:18:46Z</time>
      </trkpt>
      <trkpt lat="31.81600000" lon="35.03024000">
        <ele>329.00000</ele>
        <time>2010-01-01T00:18:49Z</time>
      </trkpt>
      <trkpt lat="31.81604000" lon="35.03016000">
        <ele>329.00000</ele>
        <time>2010-01-01T00:18:52Z</time>
      </trkpt>
      <trkpt lat="31.81626000" lon="35.02985000">
        <ele>326.00000</ele>
        <time>2010-01-01T00:19:06Z</time>
      </trkpt>
      <trkpt lat="31.81639000" lon="35.02957000">
        <ele>326.00000</ele>
        <time>2010-01-01T00:19:17Z</time>
      </trkpt>
      <trkpt lat="31.81645000" lon="35.02937000">
        <ele>325.00000</ele>
        <time>2010-01-01T00:19:24Z</time>
      </trkpt>
      <trkpt lat="31.81661000" lon="35.02861000">
        <ele>334.00000</ele>
        <time>2010-01-01T00:19:51Z</time>
      </trkpt>
      <trkpt lat="31.81670000" lon="35.02827000">
        <ele>334.00000</ele>
        <time>2010-01-01T00:20:03Z</time>
      </trkpt>
      <trkpt lat="31.81676000" lon="35.02790000">
        <ele>333.00000</ele>
        <time>2010-01-01T00:20:16Z</time>
      </trkpt>
      <trkpt lat="31.81674000" lon="35.02769000">
        <ele>334.00000</ele>
        <time>2010-01-01T00:20:23Z</time>
      </trkpt>
      <trkpt lat="31.81669000" lon="35.02755000">
        <ele>335.00000</ele>
        <time>2010-01-01T00:20:28Z</time>
      </trkpt>
      <trkpt lat="31.81643000" lon="35.02712000">
        <ele>342.00000</ele>
        <time>2010-01-01T00:20:46Z</time>
      </trkpt>
      <trkpt lat="31.81622000" lon="35.02689000">
        <ele>345.00000</ele>
        <time>2010-01-01T00:20:57Z</time>
      </trkpt>
      <trkpt lat="31.81600000" lon="35.02673000">
        <ele>347.00000</ele>
        <time>2010-01-01T00:21:08Z</time>
      </trkpt>
      <trkpt lat="31.81584000" lon="35.02667000">
        <ele>348.00000</ele>
        <time>2010-01-01T00:21:15Z</time>
      </trkpt>
      <trkpt lat="31.81572000" lon="35.02663000">
        <ele>348.00000</ele>
        <time>2010-01-01T00:21:20Z</time>
      </trkpt>
      <trkpt lat="31.81557000" lon="35.02665000">
        <ele>350.00000</ele>
        <time>2010-01-01T00:21:26Z</time>
      </trkpt>
      <trkpt lat="31.81536000" lon="35.02676000">
        <ele>352.00000</ele>
        <time>2010-01-01T00:21:35Z</time>
      </trkpt>
      <trkpt lat="31.81499000" lon="35.02705000">
        <ele>354.00000</ele>
        <time>2010-01-01T00:21:53Z</time>
      </trkpt>
      <trkpt lat="31.81489000" lon="35.02717000">
        <ele>356.00000</ele>
        <time>2010-01-01T00:21:58Z</time>
      </trkpt>
      <trkpt lat="31.81475000" lon="35.02741000">
        <ele>358.00000</ele>
        <time>2010-01-01T00:22:08Z</time>
      </trkpt>
      <trkpt lat="31.81467000" lon="35.02765000">
        <ele>360.00000</ele>
        <time>2010-01-01T00:22:17Z</time>
      </trkpt>
      <trkpt lat="31.81462000" lon="35.02790000">
        <ele>364.00000</ele>
        <time>2010-01-01T00:22:26Z</time>
      </trkpt>
      <trkpt lat="31.81457000" lon="35.02809000">
        <ele>366.00000</ele>
        <time>2010-01-01T00:22:32Z</time>
      </trkpt>
      <trkpt lat="31.81443000" lon="35.02841000">
        <ele>369.00000</ele>
        <time>2010-01-01T00:22:45Z</time>
      </trkpt>
      <trkpt lat="31.81434000" lon="35.02856000">
        <ele>370.00000</ele>
        <time>2010-01-01T00:22:51Z</time>
      </trkpt>
      <trkpt lat="31.81422000" lon="35.02869000">
        <ele>371.00000</ele>
        <time>2010-01-01T00:22:57Z</time>
      </trkpt>
      <trkpt lat="31.81413000" lon="35.02876000">
        <ele>371.00000</ele>
        <time>2010-01-01T00:23:02Z</time>
      </trkpt>
      <trkpt lat="31.81399000" lon="35.02882000">
        <ele>371.00000</ele>
        <time>2010-01-01T00:23:08Z</time>
      </trkpt>
      <trkpt lat="31.81387000" lon="35.02896000">
        <ele>372.00000</ele>
        <time>2010-01-01T00:23:15Z</time>
      </trkpt>
      <trkpt lat="31.81378000" lon="35.02913000">
        <ele>373.00000</ele>
        <time>2010-01-01T00:23:21Z</time>
      </trkpt>
      <trkpt lat="31.81364000" lon="35.02956000">
        <ele>377.00000</ele>
        <time>2010-01-01T00:23:37Z</time>
      </trkpt>
      <trkpt lat="31.81359000" lon="35.02982000">
        <ele>379.00000</ele>
        <time>2010-01-01T00:23:46Z</time>
      </trkpt>
      <trkpt lat="31.81359000" lon="35.02996000">
        <ele>380.00000</ele>
        <time>2010-01-01T00:23:51Z</time>
      </trkpt>
      <trkpt lat="31.81360000" lon="35.03007000">
        <ele>381.00000</ele>
        <time>2010-01-01T00:23:55Z</time>
      </trkpt>
      <trkpt lat="31.81378000" lon="35.03074000">
        <ele>388.00000</ele>
        <time>2010-01-01T00:24:18Z</time>
      </trkpt>
      <trkpt lat="31.81378000" lon="35.03087000">
        <ele>388.00000</ele>
        <time>2010-01-01T00:24:23Z</time>
      </trkpt>
      <trkpt lat="31.81376000" lon="35.03105000">
        <ele>388.00000</ele>
        <time>2010-01-01T00:24:29Z</time>
      </trkpt>
      <trkpt lat="31.81371000" lon="35.03119000">
        <ele>389.00000</ele>
        <time>2010-01-01T00:24:34Z</time>
      </trkpt>
      <trkpt lat="31.81364000" lon="35.03131000">
        <ele>391.00000</ele>
        <time>2010-01-01T00:24:39Z</time>
      </trkpt>
      <trkpt lat="31.81355000" lon="35.03140000">
        <ele>392.00000</ele>
        <time>2010-01-01T00:24:44Z</time>
      </trkpt>
      <trkpt lat="31.81341000" lon="35.03148000">
        <ele>395.00000</ele>
        <time>2010-01-01T00:24:50Z</time>
      </trkpt>
      <trkpt lat="31.81329000" lon="35.03151000">
        <ele>397.00000</ele>
        <time>2010-01-01T00:24:55Z</time>
      </trkpt>
      <trkpt lat="31.81304000" lon="35.03152000">
        <ele>399.00000</ele>
        <time>2010-01-01T00:25:05Z</time>
      </trkpt>
      <trkpt lat="31.81289000" lon="35.03150000">
        <ele>399.00000</ele>
        <time>2010-01-01T00:25:11Z</time>
      </trkpt>
      <trkpt lat="31.81241000" lon="35.03138000">
        <ele>400.00000</ele>
        <time>2010-01-01T00:25:31Z</time>
      </trkpt>
      <trkpt lat="31.81232000" lon="35.03139000">
        <ele>401.00000</ele>
        <time>2010-01-01T00:25:34Z</time>
      </trkpt>
      <trkpt lat="31.81221000" lon="35.03144000">
        <ele>402.00000</ele>
        <time>2010-01-01T00:25:39Z</time>
      </trkpt>
      <trkpt lat="31.81215000" lon="35.03151000">
        <ele>402.00000</ele>
        <time>2010-01-01T00:25:42Z</time>
      </trkpt>
      <trkpt lat="31.81209000" lon="35.03162000">
        <ele>402.00000</ele>
        <time>2010-01-01T00:25:47Z</time>
      </trkpt>
      <trkpt lat="31.81206000" lon="35.03170000">
        <ele>403.00000</ele>
        <time>2010-01-01T00:25:50Z</time>
      </trkpt>
      <trkpt lat="31.81199000" lon="35.03244000">
        <ele>412.00000</ele>
        <time>2010-01-01T00:26:15Z</time>
      </trkpt>
      <trkpt lat="31.81192000" lon="35.03269000">
        <ele>414.00000</ele>
        <time>2010-01-01T00:26:24Z</time>
      </trkpt>
      <trkpt lat="31.81184000" lon="35.03292000">
        <ele>415.00000</ele>
        <time>2010-01-01T00:26:33Z</time>
      </trkpt>
      <trkpt lat="31.81169000" lon="35.03325000">
        <ele>416.00000</ele>
        <time>2010-01-01T00:26:45Z</time>
      </trkpt>
      <trkpt lat="31.81151000" lon="35.03370000">
        <ele>418.00000</ele>
        <time>2010-01-01T00:27:02Z</time>
      </trkpt>
      <trkpt lat="31.81142000" lon="35.03388000">
        <ele>422.00000</ele>
        <time>2010-01-01T00:27:09Z</time>
      </trkpt>
      <trkpt lat="31.81132000" lon="35.03400000">
        <ele>424.00000</ele>
        <time>2010-01-01T00:27:15Z</time>
      </trkpt>
      <trkpt lat="31.81103000" lon="35.03420000">
        <ele>429.00000</ele>
        <time>2010-01-01T00:27:29Z</time>
      </trkpt>
      <trkpt lat="31.81089000" lon="35.03426000">
        <ele>430.00000</ele>
        <time>2010-01-01T00:27:35Z</time>
      </trkpt>
      <trkpt lat="31.81063000" lon="35.03426000">
        <ele>432.00000</ele>
        <time>2010-01-01T00:27:45Z</time>
      </trkpt>
      <trkpt lat="31.81018000" lon="35.03420000">
        <ele>435.00000</ele>
        <time>2010-01-01T00:28:03Z</time>
      </trkpt>
      <trkpt lat="31.80987000" lon="35.03421000">
        <ele>435.00000</ele>
        <time>2010-01-01T00:28:15Z</time>
      </trkpt>
      <trkpt lat="31.80972000" lon="35.03426000">
        <ele>435.00000</ele>
        <time>2010-01-01T00:28:22Z</time>
      </trkpt>
      <trkpt lat="31.80960000" lon="35.03432000">
        <ele>435.00000</ele>
        <time>2010-01-01T00:28:27Z</time>
      </trkpt>
      <trkpt lat="31.80948000" lon="35.03441000">
        <ele>435.00000</ele>
        <time>2010-01-01T00:28:33Z</time>
      </trkpt>
      <trkpt lat="31.80924000" lon="35.03469000">
        <ele>438.00000</ele>
        <time>2010-01-01T00:28:46Z</time>
      </trkpt>
      <trkpt lat="31.80907000" lon="35.03499000">
        <ele>441.00000</ele>
        <time>2010-01-01T00:28:58Z</time>
      </trkpt>
      <trkpt lat="31.80892000" lon="35.03534000">
        <ele>447.00000</ele>
        <time>2010-01-01T00:29:12Z</time>
      </trkpt>
      <trkpt lat="31.80868000" lon="35.03606000">
        <ele>452.00000</ele>
        <time>2010-01-01T00:29:38Z</time>
      </trkpt>
      <trkpt lat="31.80863000" lon="35.03620000">
        <ele>453.00000</ele>
        <time>2010-01-01T00:29:43Z</time>
      </trkpt>
      <trkpt lat="31.80839000" lon="35.03659000">
        <ele>456.00000</ele>
        <time>2010-01-01T00:30:00Z</time>
      </trkpt>
      <trkpt lat="31.80830000" lon="35.03678000">
        <ele>457.00000</ele>
        <time>2010-01-01T00:30:07Z</time>
      </trkpt>
      <trkpt lat="31.80826000" lon="35.03691000">
        <ele>459.00000</ele>
        <time>2010-01-01T00:30:12Z</time>
      </trkpt>
      <trkpt lat="31.80821000" lon="35.03714000">
        <ele>461.00000</ele>
        <time>2010-01-01T00:30:20Z</time>
      </trkpt>
      <trkpt lat="31.80819000" lon="35.03726000">
        <ele>463.00000</ele>
        <time>2010-01-01T00:30:24Z</time>
      </trkpt>
      <trkpt lat="31.80816000" lon="35.03755000">
        <ele>465.00000</ele>
        <time>2010-01-01T00:30:34Z</time>
      </trkpt>
      <trkpt lat="31.80817000" lon="35.03775000">
        <ele>467.00000</ele>
        <time>2010-01-01T00:30:41Z</time>
      </trkpt>
      <trkpt lat="31.80819000" lon="35.03801000">
        <ele>467.00000</ele>
        <time>2010-01-01T00:30:50Z</time>
      </trkpt>
      <trkpt lat="31.80824000" lon="35.03824000">
        <ele>469.00000</ele>
        <time>2010-01-01T00:30:58Z</time>
      </trkpt>
      <trkpt lat="31.80832000" lon="35.03847000">
        <ele>471.00000</ele>
        <time>2010-01-01T00:31:06Z</time>
      </trkpt>
      <trkpt lat="31.80840000" lon="35.03865000">
        <ele>474.00000</ele>
        <time>2010-01-01T00:31:13Z</time>
      </trkpt>
      <trkpt lat="31.80860000" lon="35.03902000">
        <ele>479.00000</ele>
        <time>2010-01-01T00:31:28Z</time>
      </trkpt>
      <trkpt lat="31.80878000" lon="35.03942000">
        <ele>481.00000</ele>
        <time>2010-01-01T00:31:43Z</time>
      </trkpt>
      <trkpt lat="31.80917000" lon="35.04014000">
        <ele>483.00000</ele>
        <time>2010-01-01T00:32:12Z</time>
      </trkpt>
      <trkpt lat="31.80925000" lon="35.04038000">
        <ele>484.00000</ele>
        <time>2010-01-01T00:32:21Z</time>
      </trkpt>
      <trkpt lat="31.80925000" lon="35.04072000">
        <ele>486.00000</ele>
        <time>2010-01-01T00:32:33Z</time>
      </trkpt>
      <trkpt lat="31.80913000" lon="35.04093000">
        <ele>488.00000</ele>
        <time>2010-01-01T00:32:41Z</time>
      </trkpt>
      <trkpt lat="31.80864000" lon="35.04155000">
        <ele>494.00000</ele>
        <time>2010-01-01T00:33:10Z</time>
      </trkpt>
      <trkpt lat="31.80834000" lon="35.04169000">
        <ele>493.00000</ele>
        <time>2010-01-01T00:33:23Z</time>
      </trkpt>
      <trkpt lat="31.80823000" lon="35.04177000">
        <ele>492.00000</ele>
        <time>2010-01-01T00:33:28Z</time>
      </trkpt>
      <trkpt lat="31.80819000" lon="35.04182000">
        <ele>492.00000</ele>
        <time>2010-01-01T00:33:31Z</time>
      </trkpt>
      <trkpt lat="31.80814000" lon="35.04193000">
        <ele>493.00000</ele>
        <time>2010-01-01T00:33:35Z</time>
      </trkpt>
      <trkpt lat="31.80811000" lon="35.04224000">
        <ele>498.00000</ele>
        <time>2010-01-01T00:33:45Z</time>
      </trkpt>
      <trkpt lat="31.80813000" lon="35.04332000">
        <ele>509.00000</ele>
        <time>2010-01-01T00:34:22Z</time>
      </trkpt>
      <trkpt lat="31.80807000" lon="35.04416000">
        <ele>517.00000</ele>
        <time>2010-01-01T00:34:51Z</time>
      </trkpt>
      <trkpt lat="31.80805000" lon="35.04528000">
        <ele>529.00000</ele>
        <time>2010-01-01T00:35:29Z</time>
      </trkpt>
      <trkpt lat="31.80797000" lon="35.04613000">
        <ele>534.00000</ele>
        <time>2010-01-01T00:35:58Z</time>
      </trkpt>
      <trkpt lat="31.80784000" lon="35.04679000">
        <ele>539.00000</ele>
        <time>2010-01-01T00:36:21Z</time>
      </trkpt>
      <trkpt lat="31.80782000" lon="35.04713000">
        <ele>544.00000</ele>
        <time>2010-01-01T00:36:33Z</time>
      </trkpt>
      <trkpt lat="31.80783000" lon="35.04758000">
        <ele>546.00000</ele>
        <time>2010-01-01T00:36:48Z</time>
      </trkpt>
      <trkpt lat="31.80790000" lon="35.04790000">
        <ele>548.00000</ele>
        <time>2010-01-01T00:36:59Z</time>
      </trkpt>
      <trkpt lat="31.80814000" lon="35.04880000">
        <ele>556.00000</ele>
        <time>2010-01-01T00:37:31Z</time>
      </trkpt>
      <trkpt lat="31.80830000" lon="35.04922000">
        <ele>562.00000</ele>
        <time>2010-01-01T00:37:47Z</time>
      </trkpt>
      <trkpt lat="31.80830000" lon="35.04921000">
        <ele>562.00000</ele>
        <time>2010-01-01T00:37:47Z</time>
      </trkpt>
      <trkpt lat="31.80859000" lon="35.04975000">
        <ele>566.00000</ele>
        <time>2010-01-01T00:38:09Z</time>
      </trkpt>
      <trkpt lat="31.80860000" lon="35.04991000">
        <ele>566.00000</ele>
        <time>2010-01-01T00:38:15Z</time>
      </trkpt>
      <trkpt lat="31.80841000" lon="35.05006000">
        <ele>566.00000</ele>
        <time>2010-01-01T00:38:24Z</time>
      </trkpt>
      <trkpt lat="31.80814000" lon="35.05018000">
        <ele>566.00000</ele>
        <time>2010-01-01T00:38:35Z</time>
      </trkpt>
      <trkpt lat="31.80790000" lon="35.05025000">
        <ele>565.00000</ele>
        <time>2010-01-01T00:38:45Z</time>
      </trkpt>
      <trkpt lat="31.80769000" lon="35.05034000">
        <ele>564.00000</ele>
        <time>2010-01-01T00:38:54Z</time>
      </trkpt>
      <trkpt lat="31.80756000" lon="35.05041000">
        <ele>565.00000</ele>
        <time>2010-01-01T00:39:00Z</time>
      </trkpt>
      <trkpt lat="31.80745000" lon="35.05050000">
        <ele>565.00000</ele>
        <time>2010-01-01T00:39:05Z</time>
      </trkpt>
      <trkpt lat="31.80740000" lon="35.05057000">
        <ele>565.00000</ele>
        <time>2010-01-01T00:39:08Z</time>
      </trkpt>
      <trkpt lat="31.80735000" lon="35.05067000">
        <ele>565.00000</ele>
        <time>2010-01-01T00:39:12Z</time>
      </trkpt>
      <trkpt lat="31.80732000" lon="35.05078000">
        <ele>565.00000</ele>
        <time>2010-01-01T00:39:16Z</time>
      </trkpt>
      <trkpt lat="31.80730000" lon="35.05093000">
        <ele>565.00000</ele>
        <time>2010-01-01T00:39:21Z</time>
      </trkpt>
      <trkpt lat="31.80729000" lon="35.05109000">
        <ele>565.00000</ele>
        <time>2010-01-01T00:39:27Z</time>
      </trkpt>
      <trkpt lat="31.80735000" lon="35.05150000">
        <ele>562.00000</ele>
        <time>2010-01-01T00:39:41Z</time>
      </trkpt>
      <trkpt lat="31.80741000" lon="35.05170000">
        <ele>561.00000</ele>
        <time>2010-01-01T00:39:48Z</time>
      </trkpt>
      <trkpt lat="31.80747000" lon="35.05184000">
        <ele>561.00000</ele>
        <time>2010-01-01T00:39:53Z</time>
      </trkpt>
      <trkpt lat="31.80762000" lon="35.05211000">
        <ele>563.00000</ele>
        <time>2010-01-01T00:40:04Z</time>
      </trkpt>
      <trkpt lat="31.80794000" lon="35.05260000">
        <ele>562.00000</ele>
        <time>2010-01-01T00:40:25Z</time>
      </trkpt>
      <trkpt lat="31.80810000" lon="35.05290000">
        <ele>559.00000</ele>
        <time>2010-01-01T00:40:38Z</time>
      </trkpt>
      <trkpt lat="31.80840000" lon="35.05351000">
        <ele>556.00000</ele>
        <time>2010-01-01T00:41:02Z</time>
      </trkpt>
      <trkpt lat="31.80851000" lon="35.05380000">
        <ele>555.00000</ele>
        <time>2010-01-01T00:41:12Z</time>
      </trkpt>
      <trkpt lat="31.80853000" lon="35.05401000">
        <ele>554.00000</ele>
        <time>2010-01-01T00:41:20Z</time>
      </trkpt>
      <trkpt lat="31.80853000" lon="35.05421000">
        <ele>553.00000</ele>
        <time>2010-01-01T00:41:26Z</time>
      </trkpt>
      <trkpt lat="31.80848000" lon="35.05477000">
        <ele>552.00000</ele>
        <time>2010-01-01T00:41:45Z</time>
      </trkpt>
      <trkpt lat="31.80847000" lon="35.05508000">
        <ele>552.00000</ele>
        <time>2010-01-01T00:41:56Z</time>
      </trkpt>
      <trkpt lat="31.80846000" lon="35.05528000">
        <ele>553.00000</ele>
        <time>2010-01-01T00:42:03Z</time>
      </trkpt>
      <trkpt lat="31.80853000" lon="35.05600000">
        <ele>556.00000</ele>
        <time>2010-01-01T00:42:27Z</time>
      </trkpt>
      <trkpt lat="31.80861000" lon="35.05653000">
        <ele>553.00000</ele>
        <time>2010-01-01T00:42:46Z</time>
      </trkpt>
      <trkpt lat="31.80874000" lon="35.05709000">
        <ele>551.00000</ele>
        <time>2010-01-01T00:43:06Z</time>
      </trkpt>
      <trkpt lat="31.80893000" lon="35.05805000">
        <ele>553.00000</ele>
        <time>2010-01-01T00:43:39Z</time>
      </trkpt>
      <trkpt lat="31.80894000" lon="35.05855000">
        <ele>552.00000</ele>
        <time>2010-01-01T00:43:56Z</time>
      </trkpt>
      <trkpt lat="31.80891000" lon="35.05893000">
        <ele>554.00000</ele>
        <time>2010-01-01T00:44:09Z</time>
      </trkpt>
      <trkpt lat="31.80884000" lon="35.05957000">
        <ele>558.00000</ele>
        <time>2010-01-01T00:44:31Z</time>
      </trkpt>
      <trkpt lat="31.80876000" lon="35.05988000">
        <ele>560.00000</ele>
        <time>2010-01-01T00:44:42Z</time>
      </trkpt>
      <trkpt lat="31.80859000" lon="35.06036000">
        <ele>565.00000</ele>
        <time>2010-01-01T00:45:00Z</time>
      </trkpt>
      <trkpt lat="31.80832000" lon="35.06096000">
        <ele>570.00000</ele>
        <time>2010-01-01T00:45:23Z</time>
      </trkpt>
      <trkpt lat="31.80819000" lon="35.06120000">
        <ele>571.00000</ele>
        <time>2010-01-01T00:45:33Z</time>
      </trkpt>
      <trkpt lat="31.80804000" lon="35.06146000">
        <ele>574.00000</ele>
        <time>2010-01-01T00:45:43Z</time>
      </trkpt>
      <trkpt lat="31.80732000" lon="35.06244000">
        <ele>577.00000</ele>
        <time>2010-01-01T00:46:27Z</time>
      </trkpt>
      <trkpt lat="31.80676000" lon="35.06306000">
        <ele>578.00000</ele>
        <time>2010-01-01T00:46:58Z</time>
      </trkpt>
      <trkpt lat="31.80659000" lon="35.06327000">
        <ele>576.00000</ele>
        <time>2010-01-01T00:47:08Z</time>
      </trkpt>
      <trkpt lat="31.80626000" lon="35.06376000">
        <ele>574.00000</ele>
        <time>2010-01-01T00:47:29Z</time>
      </trkpt>
      <trkpt lat="31.80543000" lon="35.06509000">
        <ele>576.00000</ele>
        <time>2010-01-01T00:48:25Z</time>
      </trkpt>
      <trkpt lat="31.80519000" lon="35.06538000">
        <ele>575.00000</ele>
        <time>2010-01-01T00:48:39Z</time>
      </trkpt>
      <trkpt lat="31.80498000" lon="35.06572000">
        <ele>578.00000</ele>
        <time>2010-01-01T00:48:53Z</time>
      </trkpt>
      <trkpt lat="31.80487000" lon="35.06596000">
        <ele>580.00000</ele>
        <time>2010-01-01T00:49:03Z</time>
      </trkpt>
      <trkpt lat="31.80483000" lon="35.06614000">
        <ele>582.00000</ele>
        <time>2010-01-01T00:49:09Z</time>
      </trkpt>
      <trkpt lat="31.80479000" lon="35.06651000">
        <ele>587.00000</ele>
        <time>2010-01-01T00:49:22Z</time>
      </trkpt>
      <trkpt lat="31.80476000" lon="35.06660000">
        <ele>587.00000</ele>
        <time>2010-01-01T00:49:25Z</time>
      </trkpt>
      <trkpt lat="31.80472000" lon="35.06670000">
        <ele>588.00000</ele>
        <time>2010-01-01T00:49:29Z</time>
      </trkpt>
      <trkpt lat="31.80462000" lon="35.06684000">
        <ele>588.00000</ele>
        <time>2010-01-01T00:49:35Z</time>
      </trkpt>
      <trkpt lat="31.80442000" lon="35.06707000">
        <ele>588.00000</ele>
        <time>2010-01-01T00:49:46Z</time>
      </trkpt>
      <trkpt lat="31.80434000" lon="35.06724000">
        <ele>589.00000</ele>
        <time>2010-01-01T00:49:53Z</time>
      </trkpt>
      <trkpt lat="31.80430000" lon="35.06738000">
        <ele>589.00000</ele>
        <time>2010-01-01T00:49:58Z</time>
      </trkpt>
      <trkpt lat="31.80428000" lon="35.06754000">
        <ele>589.00000</ele>
        <time>2010-01-01T00:50:03Z</time>
      </trkpt>
      <trkpt lat="31.80428000" lon="35.06788000">
        <ele>589.00000</ele>
        <time>2010-01-01T00:50:15Z</time>
      </trkpt>
      <trkpt lat="31.80426000" lon="35.06813000">
        <ele>589.00000</ele>
        <time>2010-01-01T00:50:23Z</time>
      </trkpt>
      <trkpt lat="31.80406000" lon="35.06866000">
        <ele>589.00000</ele>
        <time>2010-01-01T00:50:43Z</time>
      </trkpt>
      <trkpt lat="31.80394000" lon="35.06890000">
        <ele>589.00000</ele>
        <time>2010-01-01T00:50:53Z</time>
      </trkpt>
      <trkpt lat="31.80379000" lon="35.06914000">
        <ele>589.00000</ele>
        <time>2010-01-01T00:51:03Z</time>
      </trkpt>
      <trkpt lat="31.80341000" lon="35.06965000">
        <ele>588.00000</ele>
        <time>2010-01-01T00:51:26Z</time>
      </trkpt>
      <trkpt lat="31.80262000" lon="35.07089000">
        <ele>584.00000</ele>
        <time>2010-01-01T00:52:19Z</time>
      </trkpt>
      <trkpt lat="31.80245000" lon="35.07120000">
        <ele>585.00000</ele>
        <time>2010-01-01T00:52:31Z</time>
      </trkpt>
      <trkpt lat="31.80235000" lon="35.07144000">
        <ele>585.00000</ele>
        <time>2010-01-01T00:52:40Z</time>
      </trkpt>
      <trkpt lat="31.80233000" lon="35.07158000">
        <ele>585.00000</ele>
        <time>2010-01-01T00:52:45Z</time>
      </trkpt>
      <trkpt lat="31.80240000" lon="35.07191000">
        <ele>586.00000</ele>
        <time>2010-01-01T00:52:57Z</time>
      </trkpt>
      <trkpt lat="31.80182000" lon="35.07279000">
        <ele>583.00000</ele>
        <time>2010-01-01T00:53:34Z</time>
      </trkpt>
      <trkpt lat="31.80157000" lon="35.07333000">
        <ele>585.00000</ele>
        <time>2010-01-01T00:53:55Z</time>
      </trkpt>
      <trkpt lat="31.80113000" lon="35.07473000">
        <ele>585.00000</ele>
        <time>2010-01-01T00:54:46Z</time>
      </trkpt>
      <trkpt lat="31.80111000" lon="35.07485000">
        <ele>585.00000</ele>
        <time>2010-01-01T00:54:50Z</time>
      </trkpt>
      <trkpt lat="31.80111000" lon="35.07522000">
        <ele>583.00000</ele>
        <time>2010-01-01T00:55:03Z</time>
      </trkpt>
      <trkpt lat="31.80114000" lon="35.07541000">
        <ele>583.00000</ele>
        <time>2010-01-01T00:55:09Z</time>
      </trkpt>
      <trkpt lat="31.80118000" lon="35.07556000">
        <ele>584.00000</ele>
        <time>2010-01-01T00:55:15Z</time>
      </trkpt>
      <trkpt lat="31.80125000" lon="35.07564000">
        <ele>585.00000</ele>
        <time>2010-01-01T00:55:19Z</time>
      </trkpt>
      <trkpt lat="31.80131000" lon="35.07567000">
        <ele>586.00000</ele>
        <time>2010-01-01T00:55:21Z</time>
      </trkpt>
      <trkpt lat="31.80136000" lon="35.07568000">
        <ele>586.00000</ele>
        <time>2010-01-01T00:55:23Z</time>
      </trkpt>
      <trkpt lat="31.80146000" lon="35.07564000">
        <ele>587.00000</ele>
        <time>2010-01-01T00:55:28Z</time>
      </trkpt>
      <trkpt lat="31.80161000" lon="35.07551000">
        <ele>587.00000</ele>
        <time>2010-01-01T00:55:35Z</time>
      </trkpt>
      <trkpt lat="31.80184000" lon="35.07532000">
        <ele>586.00000</ele>
        <time>2010-01-01T00:55:46Z</time>
      </trkpt>
      <trkpt lat="31.80204000" lon="35.07525000">
        <ele>585.00000</ele>
        <time>2010-01-01T00:55:55Z</time>
      </trkpt>
      <trkpt lat="31.80218000" lon="35.07525000">
        <ele>586.00000</ele>
        <time>2010-01-01T00:56:00Z</time>
      </trkpt>
      <trkpt lat="31.80245000" lon="35.07533000">
        <ele>589.00000</ele>
        <time>2010-01-01T00:56:11Z</time>
      </trkpt>
      <trkpt lat="31.80252000" lon="35.07536000">
        <ele>590.00000</ele>
        <time>2010-01-01T00:56:14Z</time>
      </trkpt>
      <trkpt lat="31.80246000" lon="35.07539000">
        <ele>591.00000</ele>
        <time>2010-01-01T00:56:17Z</time>
      </trkpt>
      <trkpt lat="31.80215000" lon="35.07557000">
        <ele>596.00000</ele>
        <time>2010-01-01T00:56:31Z</time>
      </trkpt>
      <trkpt lat="31.80207000" lon="35.07568000">
        <ele>598.00000</ele>
        <time>2010-01-01T00:56:36Z</time>
      </trkpt>
      <trkpt lat="31.80189000" lon="35.07607000">
        <ele>604.00000</ele>
        <time>2010-01-01T00:56:51Z</time>
      </trkpt>
      <trkpt lat="31.80185000" lon="35.07613000">
        <ele>605.00000</ele>
        <time>2010-01-01T00:56:53Z</time>
      </trkpt>
      <trkpt lat="31.80171000" lon="35.07627000">
        <ele>604.00000</ele>
        <time>2010-01-01T00:57:01Z</time>
      </trkpt>
      <trkpt lat="31.80166000" lon="35.07635000">
        <ele>605.00000</ele>
        <time>2010-01-01T00:57:04Z</time>
      </trkpt>
      <trkpt lat="31.80166000" lon="35.07648000">
        <ele>607.00000</ele>
        <time>2010-01-01T00:57:09Z</time>
      </trkpt>
      <trkpt lat="31.80168000" lon="35.07661000">
        <ele>610.00000</ele>
        <time>2010-01-01T00:57:13Z</time>
      </trkpt>
      <trkpt lat="31.80168000" lon="35.07674000">
        <ele>612.00000</ele>
        <time>2010-01-01T00:57:18Z</time>
      </trkpt>
      <trkpt lat="31.80166000" lon="35.07699000">
        <ele>616.00000</ele>
        <time>2010-01-01T00:57:26Z</time>
      </trkpt>
      <trkpt lat="31.80161000" lon="35.07711000">
        <ele>617.00000</ele>
        <time>2010-01-01T00:57:31Z</time>
      </trkpt>
      <trkpt lat="31.80155000" lon="35.07714000">
        <ele>616.00000</ele>
        <time>2010-01-01T00:57:33Z</time>
      </trkpt>
      <trkpt lat="31.80145000" lon="35.07712000">
        <ele>614.00000</ele>
        <time>2010-01-01T00:57:37Z</time>
      </trkpt>
      <trkpt lat="31.80134000" lon="35.07706000">
        <ele>611.00000</ele>
        <time>2010-01-01T00:57:42Z</time>
      </trkpt>
      <trkpt lat="31.80134000" lon="35.07705000">
        <ele>610.00000</ele>
        <time>2010-01-01T00:57:42Z</time>
      </trkpt>
      <trkpt lat="31.80131000" lon="35.07704000">
        <ele>610.00000</ele>
        <time>2010-01-01T00:57:44Z</time>
      </trkpt>
      <trkpt lat="31.80132000" lon="35.07697000">
        <ele>609.00000</ele>
        <time>2010-01-01T00:57:46Z</time>
      </trkpt>
      <trkpt lat="31.80131000" lon="35.07688000">
        <ele>607.00000</ele>
        <time>2010-01-01T00:57:49Z</time>
      </trkpt>
      <trkpt lat="31.80126000" lon="35.07674000">
        <ele>604.00000</ele>
        <time>2010-01-01T00:57:54Z</time>
      </trkpt>
      <trkpt lat="31.80121000" lon="35.07669000">
        <ele>602.00000</ele>
        <time>2010-01-01T00:57:57Z</time>
      </trkpt>
      <trkpt lat="31.80109000" lon="35.07662000">
        <ele>600.00000</ele>
        <time>2010-01-01T00:58:02Z</time>
      </trkpt>
      <trkpt lat="31.80111000" lon="35.07653000">
        <ele>599.00000</ele>
        <time>2010-01-01T00:58:06Z</time>
      </trkpt>
      <trkpt lat="31.80110000" lon="35.07648000">
        <ele>598.00000</ele>
        <time>2010-01-01T00:58:07Z</time>
      </trkpt>
      <trkpt lat="31.80107000" lon="35.07643000">
        <ele>597.00000</ele>
        <time>2010-01-01T00:58:09Z</time>
      </trkpt>
      <trkpt lat="31.80101000" lon="35.07640000">
        <ele>597.00000</ele>
        <time>2010-01-01T00:58:12Z</time>
      </trkpt>
      <trkpt lat="31.80095000" lon="35.07640000">
        <ele>598.00000</ele>
        <time>2010-01-01T00:58:14Z</time>
      </trkpt>
      <trkpt lat="31.80087000" lon="35.07649000">
        <ele>600.00000</ele>
        <time>2010-01-01T00:58:19Z</time>
      </trkpt>
      <trkpt lat="31.79986000" lon="35.07598000">
        <ele>611.00000</ele>
        <time>2010-01-01T00:59:03Z</time>
      </trkpt>
      <trkpt lat="31.79985000" lon="35.07598000">
        <ele>611.00000</ele>
        <time>2010-01-01T00:59:03Z</time>
      </trkpt>
      <trkpt lat="31.79930000" lon="35.07568000">
        <ele>615.00000</ele>
        <time>2010-01-01T00:59:27Z</time>
      </trkpt>
      <trkpt lat="31.79890000" lon="35.07549000">
        <ele>621.00000</ele>
        <time>2010-01-01T00:59:45Z</time>
      </trkpt>
      <trkpt lat="31.79873000" lon="35.07545000">
        <ele>623.00000</ele>
        <time>2010-01-01T00:59:52Z</time>
      </trkpt>
      <trkpt lat="31.79839000" lon="35.07538000">
        <ele>625.00000</ele>
        <time>2010-01-01T01:00:06Z</time>
      </trkpt>
      <trkpt lat="31.79818000" lon="35.07537000">
        <ele>626.00000</ele>
        <time>2010-01-01T01:00:14Z</time>
      </trkpt>
      <trkpt lat="31.79811000" lon="35.07538000">
        <ele>626.00000</ele>
        <time>2010-01-01T01:00:17Z</time>
      </trkpt>
      <trkpt lat="31.79803000" lon="35.07544000">
        <ele>626.00000</ele>
        <time>2010-01-01T01:00:21Z</time>
      </trkpt>
      <trkpt lat="31.79794000" lon="35.07569000">
        <ele>622.00000</ele>
        <time>2010-01-01T01:00:30Z</time>
      </trkpt>
      <trkpt lat="31.79790000" lon="35.07576000">
        <ele>621.00000</ele>
        <time>2010-01-01T01:00:33Z</time>
      </trkpt>
      <trkpt lat="31.79781000" lon="35.07585000">
        <ele>620.00000</ele>
        <time>2010-01-01T01:00:37Z</time>
      </trkpt>
      <trkpt lat="31.79777000" lon="35.07591000">
        <ele>619.00000</ele>
        <time>2010-01-01T01:00:40Z</time>
      </trkpt>
      <trkpt lat="31.79777000" lon="35.07602000">
        <ele>618.00000</ele>
        <time>2010-01-01T01:00:44Z</time>
      </trkpt>
      <trkpt lat="31.79780000" lon="35.07607000">
        <ele>617.00000</ele>
        <time>2010-01-01T01:00:46Z</time>
      </trkpt>
      <trkpt lat="31.79788000" lon="35.07613000">
        <ele>616.00000</ele>
        <time>2010-01-01T01:00:50Z</time>
      </trkpt>
      <trkpt lat="31.79785000" lon="35.07643000">
        <ele>613.00000</ele>
        <time>2010-01-01T01:01:00Z</time>
      </trkpt>
      <trkpt lat="31.79773000" lon="35.07648000">
        <ele>612.00000</ele>
        <time>2010-01-01T01:01:05Z</time>
      </trkpt>
      <trkpt lat="31.79756000" lon="35.07652000">
        <ele>610.00000</ele>
        <time>2010-01-01T01:01:12Z</time>
      </trkpt>
      <trkpt lat="31.79739000" lon="35.07653000">
        <ele>608.00000</ele>
        <time>2010-01-01T01:01:19Z</time>
      </trkpt>
      <trkpt lat="31.79724000" lon="35.07656000">
        <ele>606.00000</ele>
        <time>2010-01-01T01:01:25Z</time>
      </trkpt>
      <trkpt lat="31.79700000" lon="35.07656000">
        <ele>605.00000</ele>
        <time>2010-01-01T01:01:34Z</time>
      </trkpt>
      <trkpt lat="31.79699000" lon="35.07656000">
        <ele>605.00000</ele>
        <time>2010-01-01T01:01:35Z</time>
      </trkpt>
      <trkpt lat="31.79674000" lon="35.07656000">
        <ele>603.00000</ele>
        <time>2010-01-01T01:01:45Z</time>
      </trkpt>
      <trkpt lat="31.79624000" lon="35.07666000">
        <ele>598.00000</ele>
        <time>2010-01-01T01:02:05Z</time>
      </trkpt>
      <trkpt lat="31.79630000" lon="35.07684000">
        <ele>595.00000</ele>
        <time>2010-01-01T01:02:12Z</time>
      </trkpt>
      <trkpt lat="31.79640000" lon="35.07698000">
        <ele>593.00000</ele>
        <time>2010-01-01T01:02:18Z</time>
      </trkpt>
      <trkpt lat="31.79685000" lon="35.07712000">
        <ele>594.00000</ele>
        <time>2010-01-01T01:02:37Z</time>
      </trkpt>
      <trkpt lat="31.79707000" lon="35.07727000">
        <ele>593.00000</ele>
        <time>2010-01-01T01:02:47Z</time>
      </trkpt>
      <trkpt lat="31.79720000" lon="35.07746000">
        <ele>592.00000</ele>
        <time>2010-01-01T01:02:55Z</time>
      </trkpt>
      <trkpt lat="31.79732000" lon="35.07802000">
        <ele>588.00000</ele>
        <time>2010-01-01T01:03:15Z</time>
      </trkpt>
      <trkpt lat="31.79733000" lon="35.07818000">
        <ele>586.00000</ele>
        <time>2010-01-01T01:03:20Z</time>
      </trkpt>
      <trkpt lat="31.79750000" lon="35.07897000">
        <ele>582.00000</ele>
        <time>2010-01-01T01:03:48Z</time>
      </trkpt>
      <trkpt lat="31.79752000" lon="35.07914000">
        <ele>581.00000</ele>
        <time>2010-01-01T01:03:54Z</time>
      </trkpt>
      <trkpt lat="31.79753000" lon="35.07951000">
        <ele>580.00000</ele>
        <time>2010-01-01T01:04:06Z</time>
      </trkpt>
      <trkpt lat="31.79758000" lon="35.07980000">
        <ele>580.00000</ele>
        <time>2010-01-01T01:04:16Z</time>
      </trkpt>
      <trkpt lat="31.79766000" lon="35.08016000">
        <ele>580.00000</ele>
        <time>2010-01-01T01:04:29Z</time>
      </trkpt>
      <trkpt lat="31.79767000" lon="35.08038000">
        <ele>578.00000</ele>
        <time>2010-01-01T01:04:37Z</time>
      </trkpt>
      <trkpt lat="31.79758000" lon="35.08033000">
        <ele>576.00000</ele>
        <time>2010-01-01T01:04:41Z</time>
      </trkpt>
      <trkpt lat="31.79712000" lon="35.07942000">
        <ele>569.00000</ele>
        <time>2010-01-01T01:05:17Z</time>
      </trkpt>
      <trkpt lat="31.79712000" lon="35.07941000">
        <ele>570.00000</ele>
        <time>2010-01-01T01:05:17Z</time>
      </trkpt>
      <trkpt lat="31.79695000" lon="35.07892000">
        <ele>569.00000</ele>
        <time>2010-01-01T01:05:35Z</time>
      </trkpt>
      <trkpt lat="31.79690000" lon="35.07847000">
        <ele>573.00000</ele>
        <time>2010-01-01T01:05:50Z</time>
      </trkpt>
      <trkpt lat="31.79679000" lon="35.07831000">
        <ele>573.00000</ele>
        <time>2010-01-01T01:05:57Z</time>
      </trkpt>
      <trkpt lat="31.79649000" lon="35.07829000">
        <ele>568.00000</ele>
        <time>2010-01-01T01:06:09Z</time>
      </trkpt>
      <trkpt lat="31.79564000" lon="35.07815000">
        <ele>563.00000</ele>
        <time>2010-01-01T01:06:44Z</time>
      </trkpt>
      <trkpt lat="31.79575000" lon="35.07819000">
        <ele>563.00000</ele>
        <time>2010-01-01T01:06:48Z</time>
      </trkpt>
      <trkpt lat="31.79625000" lon="35.07855000">
        <ele>560.00000</ele>
        <time>2010-01-01T01:07:12Z</time>
      </trkpt>
      <trkpt lat="31.79634000" lon="35.07864000">
        <ele>559.00000</ele>
        <time>2010-01-01T01:07:17Z</time>
      </trkpt>
      <trkpt lat="31.79644000" lon="35.07880000">
        <ele>559.00000</ele>
        <time>2010-01-01T01:07:23Z</time>
      </trkpt>
      <trkpt lat="31.79657000" lon="35.07949000">
        <ele>554.00000</ele>
        <time>2010-01-01T01:07:47Z</time>
      </trkpt>
      <trkpt lat="31.79656000" lon="35.07949000">
        <ele>554.00000</ele>
        <time>2010-01-01T01:07:48Z</time>
      </trkpt>
      <trkpt lat="31.79659000" lon="35.07969000">
        <ele>553.00000</ele>
        <time>2010-01-01T01:07:55Z</time>
      </trkpt>
      <trkpt lat="31.79655000" lon="35.08020000">
        <ele>550.00000</ele>
        <time>2010-01-01T01:08:12Z</time>
      </trkpt>
      <trkpt lat="31.79659000" lon="35.08049000">
        <ele>549.00000</ele>
        <time>2010-01-01T01:08:22Z</time>
      </trkpt>
      <trkpt lat="31.79659000" lon="35.08062000">
        <ele>548.00000</ele>
        <time>2010-01-01T01:08:26Z</time>
      </trkpt>
      <trkpt lat="31.79656000" lon="35.08075000">
        <ele>546.00000</ele>
        <time>2010-01-01T01:08:31Z</time>
      </trkpt>
      <trkpt lat="31.79639000" lon="35.08105000">
        <ele>541.00000</ele>
        <time>2010-01-01T01:08:43Z</time>
      </trkpt>
      <trkpt lat="31.79633000" lon="35.08120000">
        <ele>540.00000</ele>
        <time>2010-01-01T01:08:49Z</time>
      </trkpt>
      <trkpt lat="31.79610000" lon="35.08212000">
        <ele>535.00000</ele>
        <time>2010-01-01T01:09:22Z</time>
      </trkpt>
      <trkpt lat="31.79608000" lon="35.08241000">
        <ele>534.00000</ele>
        <time>2010-01-01T01:09:31Z</time>
      </trkpt>
      <trkpt lat="31.79610000" lon="35.08272000">
        <ele>533.00000</ele>
        <time>2010-01-01T01:09:42Z</time>
      </trkpt>
      <trkpt lat="31.79608000" lon="35.08296000">
        <ele>530.00000</ele>
        <time>2010-01-01T01:09:50Z</time>
      </trkpt>
      <trkpt lat="31.79608000" lon="35.08328000">
        <ele>529.00000</ele>
        <time>2010-01-01T01:10:01Z</time>
      </trkpt>
      <trkpt lat="31.79598000" lon="35.08390000">
        <ele>527.00000</ele>
        <time>2010-01-01T01:10:23Z</time>
      </trkpt>
      <trkpt lat="31.79596000" lon="35.08404000">
        <ele>527.00000</ele>
        <time>2010-01-01T01:10:27Z</time>
      </trkpt>
      <trkpt lat="31.79588000" lon="35.08422000">
        <ele>527.00000</ele>
        <time>2010-01-01T01:10:34Z</time>
      </trkpt>
      <trkpt lat="31.79577000" lon="35.08436000">
        <ele>526.00000</ele>
        <time>2010-01-01T01:10:41Z</time>
      </trkpt>
      <trkpt lat="31.79543000" lon="35.08473000">
        <ele>524.00000</ele>
        <time>2010-01-01T01:10:59Z</time>
      </trkpt>
      <trkpt lat="31.79520000" lon="35.08510000">
        <ele>523.00000</ele>
        <time>2010-01-01T01:11:15Z</time>
      </trkpt>
      <trkpt lat="31.79513000" lon="35.08526000">
        <ele>523.00000</ele>
        <time>2010-01-01T01:11:21Z</time>
      </trkpt>
      <trkpt lat="31.79509000" lon="35.08541000">
        <ele>524.00000</ele>
        <time>2010-01-01T01:11:26Z</time>
      </trkpt>
      <trkpt lat="31.79490000" lon="35.08588000">
        <ele>525.00000</ele>
        <time>2010-01-01T01:11:44Z</time>
      </trkpt>
      <trkpt lat="31.79484000" lon="35.08597000">
        <ele>525.00000</ele>
        <time>2010-01-01T01:11:48Z</time>
      </trkpt>
      <trkpt lat="31.79460000" lon="35.08598000">
        <ele>524.00000</ele>
        <time>2010-01-01T01:11:58Z</time>
      </trkpt>
      <trkpt lat="31.79440000" lon="35.08623000">
        <ele>525.00000</ele>
        <time>2010-01-01T01:12:09Z</time>
      </trkpt>
      <trkpt lat="31.79432000" lon="35.08637000">
        <ele>525.00000</ele>
        <time>2010-01-01T01:12:15Z</time>
      </trkpt>
      <trkpt lat="31.79421000" lon="35.08669000">
        <ele>525.00000</ele>
        <time>2010-01-01T01:12:27Z</time>
      </trkpt>
      <trkpt lat="31.79409000" lon="35.08713000">
        <ele>528.00000</ele>
        <time>2010-01-01T01:12:43Z</time>
      </trkpt>
      <trkpt lat="31.79392000" lon="35.08809000">
        <ele>531.00000</ele>
        <time>2010-01-01T01:13:16Z</time>
      </trkpt>
      <trkpt lat="31.79383000" lon="35.08828000">
        <ele>533.00000</ele>
        <time>2010-01-01T01:13:23Z</time>
      </trkpt>
      <trkpt lat="31.79377000" lon="35.08832000">
        <ele>535.00000</ele>
        <time>2010-01-01T01:13:26Z</time>
      </trkpt>
      <trkpt lat="31.79374000" lon="35.08832000">
        <ele>535.00000</ele>
        <time>2010-01-01T01:13:27Z</time>
      </trkpt>
      <trkpt lat="31.79370000" lon="35.08828000">
        <ele>536.00000</ele>
        <time>2010-01-01T01:13:29Z</time>
      </trkpt>
      <trkpt lat="31.79366000" lon="35.08813000">
        <ele>538.00000</ele>
        <time>2010-01-01T01:13:35Z</time>
      </trkpt>
      <trkpt lat="31.79363000" lon="35.08741000">
        <ele>541.00000</ele>
        <time>2010-01-01T01:13:59Z</time>
      </trkpt>
      <trkpt lat="31.79355000" lon="35.08659000">
        <ele>544.00000</ele>
        <time>2010-01-01T01:14:27Z</time>
      </trkpt>
      <trkpt lat="31.79355000" lon="35.08658000">
        <ele>544.00000</ele>
        <time>2010-01-01T01:14:28Z</time>
      </trkpt>
      <trkpt lat="31.79354000" lon="35.08644000">
        <ele>543.00000</ele>
        <time>2010-01-01T01:14:32Z</time>
      </trkpt>
      <trkpt lat="31.79328000" lon="35.08511000">
        <ele>552.00000</ele>
        <time>2010-01-01T01:15:19Z</time>
      </trkpt>
      <trkpt lat="31.79322000" lon="35.08487000">
        <ele>552.00000</ele>
        <time>2010-01-01T01:15:27Z</time>
      </trkpt>
      <trkpt lat="31.79311000" lon="35.08465000">
        <ele>552.00000</ele>
        <time>2010-01-01T01:15:36Z</time>
      </trkpt>
      <trkpt lat="31.79297000" lon="35.08450000">
        <ele>553.00000</ele>
        <time>2010-01-01T01:15:44Z</time>
      </trkpt>
      <trkpt lat="31.79254000" lon="35.08412000">
        <ele>556.00000</ele>
        <time>2010-01-01T01:16:05Z</time>
      </trkpt>
      <trkpt lat="31.79204000" lon="35.08363000">
        <ele>563.00000</ele>
        <time>2010-01-01T01:16:31Z</time>
      </trkpt>
      <trkpt lat="31.79094000" lon="35.08240000">
        <ele>575.00000</ele>
        <time>2010-01-01T01:17:32Z</time>
      </trkpt>
      <trkpt lat="31.79065000" lon="35.08214000">
        <ele>578.00000</ele>
        <time>2010-01-01T01:17:47Z</time>
      </trkpt>
      <trkpt lat="31.78994000" lon="35.08165000">
        <ele>582.00000</ele>
        <time>2010-01-01T01:18:20Z</time>
      </trkpt>
      <trkpt lat="31.78980000" lon="35.08159000">
        <ele>581.00000</ele>
        <time>2010-01-01T01:18:26Z</time>
      </trkpt>
      <trkpt lat="31.78955000" lon="35.08158000">
        <ele>583.00000</ele>
        <time>2010-01-01T01:18:36Z</time>
      </trkpt>
      <trkpt lat="31.78912000" lon="35.08161000">
        <ele>589.00000</ele>
        <time>2010-01-01T01:18:53Z</time>
      </trkpt>
      <trkpt lat="31.78897000" lon="35.08160000">
        <ele>590.00000</ele>
        <time>2010-01-01T01:18:59Z</time>
      </trkpt>
      <trkpt lat="31.78872000" lon="35.08149000">
        <ele>588.00000</ele>
        <time>2010-01-01T01:19:09Z</time>
      </trkpt>
      <trkpt lat="31.78871000" lon="35.08149000">
        <ele>588.00000</ele>
        <time>2010-01-01T01:19:10Z</time>
      </trkpt>
      <trkpt lat="31.78801000" lon="35.08112000">
        <ele>586.00000</ele>
        <time>2010-01-01T01:19:41Z</time>
      </trkpt>
      <trkpt lat="31.78786000" lon="35.08100000">
        <ele>587.00000</ele>
        <time>2010-01-01T01:19:48Z</time>
      </trkpt>
      <trkpt lat="31.78754000" lon="35.08072000">
        <ele>585.00000</ele>
        <time>2010-01-01T01:20:04Z</time>
      </trkpt>
      <trkpt lat="31.78701000" lon="35.08028000">
        <ele>588.00000</ele>
        <time>2010-01-01T01:20:30Z</time>
      </trkpt>
      <trkpt lat="31.78674000" lon="35.08000000">
        <ele>588.00000</ele>
        <time>2010-01-01T01:20:44Z</time>
      </trkpt>
      <trkpt lat="31.78658000" lon="35.07977000">
        <ele>587.00000</ele>
        <time>2010-01-01T01:20:54Z</time>
      </trkpt>
      <trkpt lat="31.78607000" lon="35.07889000">
        <ele>581.00000</ele>
        <time>2010-01-01T01:21:31Z</time>
      </trkpt>
      <trkpt lat="31.78589000" lon="35.07862000">
        <ele>584.00000</ele>
        <time>2010-01-01T01:21:42Z</time>
      </trkpt>
      <trkpt lat="31.78578000" lon="35.07851000">
        <ele>586.00000</ele>
        <time>2010-01-01T01:21:48Z</time>
      </trkpt>
      <trkpt lat="31.78571000" lon="35.07851000">
        <ele>587.00000</ele>
        <time>2010-01-01T01:21:51Z</time>
      </trkpt>
      <trkpt lat="31.78568000" lon="35.07853000">
        <ele>587.00000</ele>
        <time>2010-01-01T01:21:52Z</time>
      </trkpt>
      <trkpt lat="31.78558000" lon="35.07864000">
        <ele>587.00000</ele>
        <time>2010-01-01T01:21:58Z</time>
      </trkpt>
      <trkpt lat="31.78504000" lon="35.07980000">
        <ele>576.00000</ele>
        <time>2010-01-01T01:22:43Z</time>
      </trkpt>
      <trkpt lat="31.78481000" lon="35.08024000">
        <ele>571.00000</ele>
        <time>2010-01-01T01:23:00Z</time>
      </trkpt>
      <trkpt lat="31.78443000" lon="35.08106000">
        <ele>570.00000</ele>
        <time>2010-01-01T01:23:32Z</time>
      </trkpt>
      <trkpt lat="31.78433000" lon="35.08123000">
        <ele>570.00000</ele>
        <time>2010-01-01T01:23:39Z</time>
      </trkpt>
      <trkpt lat="31.78418000" lon="35.08148000">
        <ele>570.00000</ele>
        <time>2010-01-01T01:23:49Z</time>
      </trkpt>
      <trkpt lat="31.78386000" lon="35.08194000">
        <ele>567.00000</ele>
        <time>2010-01-01T01:24:10Z</time>
      </trkpt>
      <trkpt lat="31.78364000" lon="35.08233000">
        <ele>568.00000</ele>
        <time>2010-01-01T01:24:26Z</time>
      </trkpt>
      <trkpt lat="31.78320000" lon="35.08301000">
        <ele>569.00000</ele>
        <time>2010-01-01T01:24:55Z</time>
      </trkpt>
      <trkpt lat="31.78308000" lon="35.08323000">
        <ele>570.00000</ele>
        <time>2010-01-01T01:25:04Z</time>
      </trkpt>
      <trkpt lat="31.78286000" lon="35.08371000">
        <ele>570.00000</ele>
        <time>2010-01-01T01:25:22Z</time>
      </trkpt>
      <trkpt lat="31.78265000" lon="35.08425000">
        <ele>571.00000</ele>
        <time>2010-01-01T01:25:42Z</time>
      </trkpt>
      <trkpt lat="31.78247000" lon="35.08504000">
        <ele>576.00000</ele>
        <time>2010-01-01T01:26:10Z</time>
      </trkpt>
      <trkpt lat="31.78243000" lon="35.08511000">
        <ele>576.00000</ele>
        <time>2010-01-01T01:26:13Z</time>
      </trkpt>
      <trkpt lat="31.78230000" lon="35.08523000">
        <ele>577.00000</ele>
        <time>2010-01-01T01:26:20Z</time>
      </trkpt>
      <trkpt lat="31.78226000" lon="35.08495000">
        <ele>576.00000</ele>
        <time>2010-01-01T01:26:29Z</time>
      </trkpt>
      <trkpt lat="31.78225000" lon="35.08485000">
        <ele>576.00000</ele>
        <time>2010-01-01T01:26:33Z</time>
      </trkpt>
      <trkpt lat="31.78227000" lon="35.08467000">
        <ele>576.00000</ele>
        <time>2010-01-01T01:26:39Z</time>
      </trkpt>
      <trkpt lat="31.78233000" lon="35.08445000">
        <ele>573.00000</ele>
        <time>2010-01-01T01:26:47Z</time>
      </trkpt>
      <trkpt lat="31.78300000" lon="35.08253000">
        <ele>566.00000</ele>
        <time>2010-01-01T01:27:57Z</time>
      </trkpt>
      <trkpt lat="31.78343000" lon="35.08121000">
        <ele>563.00000</ele>
        <time>2010-01-01T01:28:46Z</time>
      </trkpt>
      <trkpt lat="31.78346000" lon="35.08105000">
        <ele>565.00000</ele>
        <time>2010-01-01T01:28:51Z</time>
      </trkpt>
      <trkpt lat="31.78353000" lon="35.08043000">
        <ele>565.00000</ele>
        <time>2010-01-01T01:29:12Z</time>
      </trkpt>
      <trkpt lat="31.78352000" lon="35.08011000">
        <ele>563.00000</ele>
        <time>2010-01-01T01:29:23Z</time>
      </trkpt>
      <trkpt lat="31.78347000" lon="35.07990000">
        <ele>565.00000</ele>
        <time>2010-01-01T01:29:31Z</time>
      </trkpt>
      <trkpt lat="31.78339000" lon="35.07976000">
        <ele>568.00000</ele>
        <time>2010-01-01T01:29:36Z</time>
      </trkpt>
      <trkpt lat="31.78326000" lon="35.07962000">
        <ele>570.00000</ele>
        <time>2010-01-01T01:29:43Z</time>
      </trkpt>
      <trkpt lat="31.78302000" lon="35.07948000">
        <ele>571.00000</ele>
        <time>2010-01-01T01:29:54Z</time>
      </trkpt>
      <trkpt lat="31.78272000" lon="35.07935000">
        <ele>573.00000</ele>
        <time>2010-01-01T01:30:07Z</time>
      </trkpt>
      <trkpt lat="31.78257000" lon="35.07926000">
        <ele>574.00000</ele>
        <time>2010-01-01T01:30:14Z</time>
      </trkpt>
      <trkpt lat="31.78248000" lon="35.07918000">
        <ele>575.00000</ele>
        <time>2010-01-01T01:30:18Z</time>
      </trkpt>
      <trkpt lat="31.78242000" lon="35.07911000">
        <ele>576.00000</ele>
        <time>2010-01-01T01:30:22Z</time>
      </trkpt>
      <trkpt lat="31.78242000" lon="35.07910000">
        <ele>575.00000</ele>
        <time>2010-01-01T01:30:22Z</time>
      </trkpt>
      <trkpt lat="31.78230000" lon="35.07895000">
        <ele>577.00000</ele>
        <time>2010-01-01T01:30:29Z</time>
      </trkpt>
      <trkpt lat="31.78195000" lon="35.07837000">
        <ele>580.00000</ele>
        <time>2010-01-01T01:30:53Z</time>
      </trkpt>
      <trkpt lat="31.78180000" lon="35.07816000">
        <ele>577.00000</ele>
        <time>2010-01-01T01:31:03Z</time>
      </trkpt>
      <trkpt lat="31.78167000" lon="35.07804000">
        <ele>576.00000</ele>
        <time>2010-01-01T01:31:09Z</time>
      </trkpt>
      <trkpt lat="31.78144000" lon="35.07791000">
        <ele>576.00000</ele>
        <time>2010-01-01T01:31:19Z</time>
      </trkpt>
      <trkpt lat="31.78121000" lon="35.07785000">
        <ele>579.00000</ele>
        <time>2010-01-01T01:31:29Z</time>
      </trkpt>
      <trkpt lat="31.78104000" lon="35.07785000">
        <ele>581.00000</ele>
        <time>2010-01-01T01:31:36Z</time>
      </trkpt>
      <trkpt lat="31.78052000" lon="35.07793000">
        <ele>586.00000</ele>
        <time>2010-01-01T01:31:57Z</time>
      </trkpt>
      <trkpt lat="31.78030000" lon="35.07799000">
        <ele>586.00000</ele>
        <time>2010-01-01T01:32:06Z</time>
      </trkpt>
      <trkpt lat="31.78014000" lon="35.07806000">
        <ele>586.00000</ele>
        <time>2010-01-01T01:32:12Z</time>
      </trkpt>
      <trkpt lat="31.77936000" lon="35.07855000">
        <ele>592.00000</ele>
        <time>2010-01-01T01:32:48Z</time>
      </trkpt>
      <trkpt lat="31.77923000" lon="35.07860000">
        <ele>593.00000</ele>
        <time>2010-01-01T01:32:53Z</time>
      </trkpt>
      <trkpt lat="31.77918000" lon="35.07860000">
        <ele>593.00000</ele>
        <time>2010-01-01T01:32:55Z</time>
      </trkpt>
      <trkpt lat="31.77910000" lon="35.07854000">
        <ele>594.00000</ele>
        <time>2010-01-01T01:32:59Z</time>
      </trkpt>
      <trkpt lat="31.77908000" lon="35.07847000">
        <ele>594.00000</ele>
        <time>2010-01-01T01:33:02Z</time>
      </trkpt>
      <trkpt lat="31.77908000" lon="35.07836000">
        <ele>593.00000</ele>
        <time>2010-01-01T01:33:05Z</time>
      </trkpt>
      <trkpt lat="31.77915000" lon="35.07789000">
        <ele>587.00000</ele>
        <time>2010-01-01T01:33:22Z</time>
      </trkpt>
      <trkpt lat="31.77914000" lon="35.07765000">
        <ele>585.00000</ele>
        <time>2010-01-01T01:33:30Z</time>
      </trkpt>
      <trkpt lat="31.77914000" lon="35.07764000">
        <ele>585.00000</ele>
        <time>2010-01-01T01:33:30Z</time>
      </trkpt>
      <trkpt lat="31.77909000" lon="35.07734000">
        <ele>584.00000</ele>
        <time>2010-01-01T01:33:41Z</time>
      </trkpt>
      <trkpt lat="31.77888000" lon="35.07680000">
        <ele>589.00000</ele>
        <time>2010-01-01T01:34:01Z</time>
      </trkpt>
      <trkpt lat="31.77885000" lon="35.07668000">
        <ele>591.00000</ele>
        <time>2010-01-01T01:34:05Z</time>
      </trkpt>
      <trkpt lat="31.77885000" lon="35.07654000">
        <ele>592.00000</ele>
        <time>2010-01-01T01:34:10Z</time>
      </trkpt>
      <trkpt lat="31.77888000" lon="35.07643000">
        <ele>592.00000</ele>
        <time>2010-01-01T01:34:14Z</time>
      </trkpt>
      <trkpt lat="31.77899000" lon="35.07630000">
        <ele>592.00000</ele>
        <time>2010-01-01T01:34:20Z</time>
      </trkpt>
      <trkpt lat="31.77935000" lon="35.07599000">
        <ele>591.00000</ele>
        <time>2010-01-01T01:34:38Z</time>
      </trkpt>
      <trkpt lat="31.77953000" lon="35.07577000">
        <ele>591.00000</ele>
        <time>2010-01-01T01:34:48Z</time>
      </trkpt>
      <trkpt lat="31.77962000" lon="35.07560000">
        <ele>591.00000</ele>
        <time>2010-01-01T01:34:55Z</time>
      </trkpt>
      <trkpt lat="31.77972000" lon="35.07524000">
        <ele>591.00000</ele>
        <time>2010-01-01T01:35:08Z</time>
      </trkpt>
      <trkpt lat="31.77980000" lon="35.07474000">
        <ele>598.00000</ele>
        <time>2010-01-01T01:35:25Z</time>
      </trkpt>
      <trkpt lat="31.77979000" lon="35.07450000">
        <ele>598.00000</ele>
        <time>2010-01-01T01:35:33Z</time>
      </trkpt>
      <trkpt lat="31.77971000" lon="35.07419000">
        <ele>597.00000</ele>
        <time>2010-01-01T01:35:44Z</time>
      </trkpt>
      <trkpt lat="31.77936000" lon="35.07347000">
        <ele>601.00000</ele>
        <time>2010-01-01T01:36:13Z</time>
      </trkpt>
      <trkpt lat="31.77933000" lon="35.07331000">
        <ele>600.00000</ele>
        <time>2010-01-01T01:36:18Z</time>
      </trkpt>
      <trkpt lat="31.77934000" lon="35.07304000">
        <ele>599.00000</ele>
        <time>2010-01-01T01:36:27Z</time>
      </trkpt>
      <trkpt lat="31.77943000" lon="35.07249000">
        <ele>598.00000</ele>
        <time>2010-01-01T01:36:46Z</time>
      </trkpt>
      <trkpt lat="31.77946000" lon="35.07217000">
        <ele>598.00000</ele>
        <time>2010-01-01T01:36:57Z</time>
      </trkpt>
      <trkpt lat="31.77942000" lon="35.07156000">
        <ele>603.00000</ele>
        <time>2010-01-01T01:37:18Z</time>
      </trkpt>
      <trkpt lat="31.77944000" lon="35.07130000">
        <ele>605.00000</ele>
        <time>2010-01-01T01:37:27Z</time>
      </trkpt>
      <trkpt lat="31.77952000" lon="35.07108000">
        <ele>605.00000</ele>
        <time>2010-01-01T01:37:35Z</time>
      </trkpt>
      <trkpt lat="31.78005000" lon="35.07013000">
        <ele>603.00000</ele>
        <time>2010-01-01T01:38:14Z</time>
      </trkpt>
      <trkpt lat="31.78013000" lon="35.06995000">
        <ele>603.00000</ele>
        <time>2010-01-01T01:38:21Z</time>
      </trkpt>
      <trkpt lat="31.78014000" lon="35.06995000">
        <ele>603.00000</ele>
        <time>2010-01-01T01:38:21Z</time>
      </trkpt>
      <trkpt lat="31.78018000" lon="35.06979000">
        <ele>604.00000</ele>
        <time>2010-01-01T01:38:27Z</time>
      </trkpt>
      <trkpt lat="31.78028000" lon="35.06933000">
        <ele>607.00000</ele>
        <time>2010-01-01T01:38:43Z</time>
      </trkpt>
      <trkpt lat="31.78035000" lon="35.06872000">
        <ele>607.00000</ele>
        <time>2010-01-01T01:39:04Z</time>
      </trkpt>
      <trkpt lat="31.78034000" lon="35.06851000">
        <ele>609.00000</ele>
        <time>2010-01-01T01:39:11Z</time>
      </trkpt>
      <trkpt lat="31.78030000" lon="35.06832000">
        <ele>610.00000</ele>
        <time>2010-01-01T01:39:18Z</time>
      </trkpt>
      <trkpt lat="31.78015000" lon="35.06783000">
        <ele>616.00000</ele>
        <time>2010-01-01T01:39:36Z</time>
      </trkpt>
      <trkpt lat="31.78013000" lon="35.06769000">
        <ele>618.00000</ele>
        <time>2010-01-01T01:39:40Z</time>
      </trkpt>
      <trkpt lat="31.78013000" lon="35.06758000">
        <ele>619.00000</ele>
        <time>2010-01-01T01:39:44Z</time>
      </trkpt>
      <trkpt lat="31.78017000" lon="35.06745000">
        <ele>620.00000</ele>
        <time>2010-01-01T01:39:49Z</time>
      </trkpt>
      <trkpt lat="31.78026000" lon="35.06726000">
        <ele>620.00000</ele>
        <time>2010-01-01T01:39:56Z</time>
      </trkpt>
      <trkpt lat="31.78078000" lon="35.06650000">
        <ele>619.00000</ele>
        <time>2010-01-01T01:40:29Z</time>
      </trkpt>
      <trkpt lat="31.78089000" lon="35.06631000">
        <ele>617.00000</ele>
        <time>2010-01-01T01:40:37Z</time>
      </trkpt>
      <trkpt lat="31.78099000" lon="35.06608000">
        <ele>617.00000</ele>
        <time>2010-01-01T01:40:46Z</time>
      </trkpt>
      <trkpt lat="31.78107000" lon="35.06574000">
        <ele>615.00000</ele>
        <time>2010-01-01T01:40:58Z</time>
      </trkpt>
      <trkpt lat="31.78108000" lon="35.06556000">
        <ele>614.00000</ele>
        <time>2010-01-01T01:41:04Z</time>
      </trkpt>
      <trkpt lat="31.78106000" lon="35.06419000">
        <ele>611.00000</ele>
        <time>2010-01-01T01:41:51Z</time>
      </trkpt>
      <trkpt lat="31.78104000" lon="35.06387000">
        <ele>609.00000</ele>
        <time>2010-01-01T01:42:02Z</time>
      </trkpt>
      <trkpt lat="31.78097000" lon="35.06374000">
        <ele>608.00000</ele>
        <time>2010-01-01T01:42:07Z</time>
      </trkpt>
      <trkpt lat="31.78089000" lon="35.06368000">
        <ele>607.00000</ele>
        <time>2010-01-01T01:42:11Z</time>
      </trkpt>
      <trkpt lat="31.78078000" lon="35.06368000">
        <ele>607.00000</ele>
        <time>2010-01-01T01:42:15Z</time>
      </trkpt>
      <trkpt lat="31.78041000" lon="35.06383000">
        <ele>611.00000</ele>
        <time>2010-01-01T01:42:31Z</time>
      </trkpt>
      <trkpt lat="31.77924000" lon="35.06455000">
        <ele>617.00000</ele>
        <time>2010-01-01T01:43:24Z</time>
      </trkpt>
      <trkpt lat="31.77917000" lon="35.06457000">
        <ele>618.00000</ele>
        <time>2010-01-01T01:43:27Z</time>
      </trkpt>
      <trkpt lat="31.77909000" lon="35.06457000">
        <ele>618.00000</ele>
        <time>2010-01-01T01:43:30Z</time>
      </trkpt>
      <trkpt lat="31.77904000" lon="35.06455000">
        <ele>618.00000</ele>
        <time>2010-01-01T01:43:32Z</time>
      </trkpt>
      <trkpt lat="31.77899000" lon="35.06449000">
        <ele>617.00000</ele>
        <time>2010-01-01T01:43:35Z</time>
      </trkpt>
      <trkpt lat="31.77895000" lon="35.06441000">
        <ele>617.00000</ele>
        <time>2010-01-01T01:43:38Z</time>
      </trkpt>
      <trkpt lat="31.77893000" lon="35.06428000">
        <ele>616.00000</ele>
        <time>2010-01-01T01:43:42Z</time>
      </trkpt>
      <trkpt lat="31.77897000" lon="35.06402000">
        <ele>613.00000</ele>
        <time>2010-01-01T01:43:51Z</time>
      </trkpt>
      <trkpt lat="31.77905000" lon="35.06378000">
        <ele>611.00000</ele>
        <time>2010-01-01T01:44:00Z</time>
      </trkpt>
      <trkpt lat="31.77940000" lon="35.06291000">
        <ele>604.00000</ele>
        <time>2010-01-01T01:44:33Z</time>
      </trkpt>
      <trkpt lat="31.77949000" lon="35.06273000">
        <ele>603.00000</ele>
        <time>2010-01-01T01:44:40Z</time>
      </trkpt>
      <trkpt lat="31.77967000" lon="35.06241000">
        <ele>602.00000</ele>
        <time>2010-01-01T01:44:53Z</time>
      </trkpt>
      <trkpt lat="31.77989000" lon="35.06194000">
        <ele>599.00000</ele>
        <time>2010-01-01T01:45:11Z</time>
      </trkpt>
      <trkpt lat="31.78010000" lon="35.06145000">
        <ele>594.00000</ele>
        <time>2010-01-01T01:45:30Z</time>
      </trkpt>
      <trkpt lat="31.78017000" lon="35.06121000">
        <ele>595.00000</ele>
        <time>2010-01-01T01:45:39Z</time>
      </trkpt>
      <trkpt lat="31.78025000" lon="35.06086000">
        <ele>596.00000</ele>
        <time>2010-01-01T01:45:51Z</time>
      </trkpt>
      <trkpt lat="31.78040000" lon="35.05966000">
        <ele>593.00000</ele>
        <time>2010-01-01T01:46:32Z</time>
      </trkpt>
      <trkpt lat="31.78042000" lon="35.05938000">
        <ele>592.00000</ele>
        <time>2010-01-01T01:46:42Z</time>
      </trkpt>
      <trkpt lat="31.78042000" lon="35.05904000">
        <ele>589.00000</ele>
        <time>2010-01-01T01:46:53Z</time>
      </trkpt>
      <trkpt lat="31.78040000" lon="35.05883000">
        <ele>588.00000</ele>
        <time>2010-01-01T01:47:01Z</time>
      </trkpt>
      <trkpt lat="31.78035000" lon="35.05857000">
        <ele>588.00000</ele>
        <time>2010-01-01T01:47:10Z</time>
      </trkpt>
      <trkpt lat="31.78030000" lon="35.05841000">
        <ele>587.00000</ele>
        <time>2010-01-01T01:47:15Z</time>
      </trkpt>
      <trkpt lat="31.78021000" lon="35.05828000">
        <ele>586.00000</ele>
        <time>2010-01-01T01:47:21Z</time>
      </trkpt>
      <trkpt lat="31.78002000" lon="35.05815000">
        <ele>585.00000</ele>
        <time>2010-01-01T01:47:30Z</time>
      </trkpt>
      <trkpt lat="31.77993000" lon="35.05813000">
        <ele>585.00000</ele>
        <time>2010-01-01T01:47:34Z</time>
      </trkpt>
      <trkpt lat="31.77978000" lon="35.05811000">
        <ele>586.00000</ele>
        <time>2010-01-01T01:47:40Z</time>
      </trkpt>
      <trkpt lat="31.77957000" lon="35.05814000">
        <ele>587.00000</ele>
        <time>2010-01-01T01:47:48Z</time>
      </trkpt>
      <trkpt lat="31.77935000" lon="35.05821000">
        <ele>589.00000</ele>
        <time>2010-01-01T01:47:57Z</time>
      </trkpt>
      <trkpt lat="31.77921000" lon="35.05822000">
        <ele>590.00000</ele>
        <time>2010-01-01T01:48:03Z</time>
      </trkpt>
      <trkpt lat="31.77914000" lon="35.05821000">
        <ele>590.00000</ele>
        <time>2010-01-01T01:48:06Z</time>
      </trkpt>
      <trkpt lat="31.77908000" lon="35.05816000">
        <ele>591.00000</ele>
        <time>2010-01-01T01:48:09Z</time>
      </trkpt>
      <trkpt lat="31.77903000" lon="35.05804000">
        <ele>590.00000</ele>
        <time>2010-01-01T01:48:13Z</time>
      </trkpt>
      <trkpt lat="31.77903000" lon="35.05793000">
        <ele>589.00000</ele>
        <time>2010-01-01T01:48:17Z</time>
      </trkpt>
      <trkpt lat="31.77906000" lon="35.05780000">
        <ele>587.00000</ele>
        <time>2010-01-01T01:48:22Z</time>
      </trkpt>
      <trkpt lat="31.77927000" lon="35.05733000">
        <ele>584.00000</ele>
        <time>2010-01-01T01:48:40Z</time>
      </trkpt>
      <trkpt lat="31.77954000" lon="35.05680000">
        <ele>582.00000</ele>
        <time>2010-01-01T01:49:01Z</time>
      </trkpt>
      <trkpt lat="31.78005000" lon="35.05565000">
        <ele>586.00000</ele>
        <time>2010-01-01T01:49:45Z</time>
      </trkpt>
      <trkpt lat="31.78020000" lon="35.05535000">
        <ele>588.00000</ele>
        <time>2010-01-01T01:49:57Z</time>
      </trkpt>
      <trkpt lat="31.78027000" lon="35.05528000">
        <ele>589.00000</ele>
        <time>2010-01-01T01:50:00Z</time>
      </trkpt>
      <trkpt lat="31.78037000" lon="35.05525000">
        <ele>588.00000</ele>
        <time>2010-01-01T01:50:04Z</time>
      </trkpt>
      <trkpt lat="31.78068000" lon="35.05527000">
        <ele>584.00000</ele>
        <time>2010-01-01T01:50:17Z</time>
      </trkpt>
      <trkpt lat="31.78109000" lon="35.05527000">
        <ele>583.00000</ele>
        <time>2010-01-01T01:50:33Z</time>
      </trkpt>
      <trkpt lat="31.78175000" lon="35.05537000">
        <ele>574.00000</ele>
        <time>2010-01-01T01:51:00Z</time>
      </trkpt>
      <trkpt lat="31.78187000" lon="35.05535000">
        <ele>572.00000</ele>
        <time>2010-01-01T01:51:05Z</time>
      </trkpt>
      <trkpt lat="31.78203000" lon="35.05531000">
        <ele>569.00000</ele>
        <time>2010-01-01T01:51:11Z</time>
      </trkpt>
      <trkpt lat="31.78220000" lon="35.05522000">
        <ele>567.00000</ele>
        <time>2010-01-01T01:51:19Z</time>
      </trkpt>
      <trkpt lat="31.78230000" lon="35.05515000">
        <ele>566.00000</ele>
        <time>2010-01-01T01:51:23Z</time>
      </trkpt>
      <trkpt lat="31.78238000" lon="35.05506000">
        <ele>566.00000</ele>
        <time>2010-01-01T01:51:28Z</time>
      </trkpt>
      <trkpt lat="31.78249000" lon="35.05484000">
        <ele>568.00000</ele>
        <time>2010-01-01T01:51:37Z</time>
      </trkpt>
      <trkpt lat="31.78266000" lon="35.05413000">
        <ele>562.00000</ele>
        <time>2010-01-01T01:52:02Z</time>
      </trkpt>
      <trkpt lat="31.78290000" lon="35.05354000">
        <ele>556.00000</ele>
        <time>2010-01-01T01:52:24Z</time>
      </trkpt>
      <trkpt lat="31.78298000" lon="35.05331000">
        <ele>554.00000</ele>
        <time>2010-01-01T01:52:32Z</time>
      </trkpt>
      <trkpt lat="31.78303000" lon="35.05309000">
        <ele>553.00000</ele>
        <time>2010-01-01T01:52:40Z</time>
      </trkpt>
      <trkpt lat="31.78307000" lon="35.05179000">
        <ele>547.00000</ele>
        <time>2010-01-01T01:53:24Z</time>
      </trkpt>
      <trkpt lat="31.78307000" lon="35.05136000">
        <ele>541.00000</ele>
        <time>2010-01-01T01:53:39Z</time>
      </trkpt>
      <trkpt lat="31.78311000" lon="35.05084000">
        <ele>530.00000</ele>
        <time>2010-01-01T01:53:57Z</time>
      </trkpt>
      <trkpt lat="31.78310000" lon="35.05006000">
        <ele>522.00000</ele>
        <time>2010-01-01T01:54:23Z</time>
      </trkpt>
      <trkpt lat="31.78303000" lon="35.04973000">
        <ele>523.00000</ele>
        <time>2010-01-01T01:54:35Z</time>
      </trkpt>
      <trkpt lat="31.78275000" lon="35.04886000">
        <ele>520.00000</ele>
        <time>2010-01-01T01:55:07Z</time>
      </trkpt>
      <trkpt lat="31.78264000" lon="35.04834000">
        <ele>517.00000</ele>
        <time>2010-01-01T01:55:25Z</time>
      </trkpt>
      <trkpt lat="31.78258000" lon="35.04788000">
        <ele>517.00000</ele>
        <time>2010-01-01T01:55:41Z</time>
      </trkpt>
      <trkpt lat="31.78260000" lon="35.04736000">
        <ele>513.00000</ele>
        <time>2010-01-01T01:55:58Z</time>
      </trkpt>
      <trkpt lat="31.78265000" lon="35.04679000">
        <ele>507.00000</ele>
        <time>2010-01-01T01:56:18Z</time>
      </trkpt>
      <trkpt lat="31.78268000" lon="35.04651000">
        <ele>505.00000</ele>
        <time>2010-01-01T01:56:27Z</time>
      </trkpt>
      <trkpt lat="31.78278000" lon="35.04595000">
        <ele>504.00000</ele>
        <time>2010-01-01T01:56:47Z</time>
      </trkpt>
      <trkpt lat="31.78288000" lon="35.04554000">
        <ele>499.00000</ele>
        <time>2010-01-01T01:57:01Z</time>
      </trkpt>
      <trkpt lat="31.78289000" lon="35.04534000">
        <ele>495.00000</ele>
        <time>2010-01-01T01:57:08Z</time>
      </trkpt>
      <trkpt lat="31.78285000" lon="35.04516000">
        <ele>495.00000</ele>
        <time>2010-01-01T01:57:15Z</time>
      </trkpt>
      <trkpt lat="31.78268000" lon="35.04458000">
        <ele>497.00000</ele>
        <time>2010-01-01T01:57:35Z</time>
      </trkpt>
      <trkpt lat="31.78247000" lon="35.04398000">
        <ele>494.00000</ele>
        <time>2010-01-01T01:57:58Z</time>
      </trkpt>
      <trkpt lat="31.78244000" lon="35.04386000">
        <ele>494.00000</ele>
        <time>2010-01-01T01:58:02Z</time>
      </trkpt>
      <trkpt lat="31.78237000" lon="35.04328000">
        <ele>490.00000</ele>
        <time>2010-01-01T01:58:22Z</time>
      </trkpt>
      <trkpt lat="31.78235000" lon="35.04276000">
        <ele>481.00000</ele>
        <time>2010-01-01T01:58:39Z</time>
      </trkpt>
      <trkpt lat="31.78235000" lon="35.04275000">
        <ele>481.00000</ele>
        <time>2010-01-01T01:58:40Z</time>
      </trkpt>
      <trkpt lat="31.78234000" lon="35.04247000">
        <ele>473.00000</ele>
        <time>2010-01-01T01:58:49Z</time>
      </trkpt>
      <trkpt lat="31.78231000" lon="35.04233000">
        <ele>469.00000</ele>
        <time>2010-01-01T01:58:54Z</time>
      </trkpt>
      <trkpt lat="31.78227000" lon="35.04222000">
        <ele>467.00000</ele>
        <time>2010-01-01T01:58:58Z</time>
      </trkpt>
      <trkpt lat="31.78224000" lon="35.04216000">
        <ele>466.00000</ele>
        <time>2010-01-01T01:59:01Z</time>
      </trkpt>
      <trkpt lat="31.78216000" lon="35.04209000">
        <ele>467.00000</ele>
        <time>2010-01-01T01:59:05Z</time>
      </trkpt>
      <trkpt lat="31.78174000" lon="35.04193000">
        <ele>477.00000</ele>
        <time>2010-01-01T01:59:22Z</time>
      </trkpt>
      <trkpt lat="31.78165000" lon="35.04185000">
        <ele>477.00000</ele>
        <time>2010-01-01T01:59:27Z</time>
      </trkpt>
      <trkpt lat="31.78148000" lon="35.04147000">
        <ele>463.00000</ele>
        <time>2010-01-01T01:59:41Z</time>
      </trkpt>
      <trkpt lat="31.78140000" lon="35.04136000">
        <ele>458.00000</ele>
        <time>2010-01-01T01:59:46Z</time>
      </trkpt>
      <trkpt lat="31.78135000" lon="35.04132000">
        <ele>458.00000</ele>
        <time>2010-01-01T01:59:49Z</time>
      </trkpt>
      <trkpt lat="31.78101000" lon="35.04119000">
        <ele>469.00000</ele>
        <time>2010-01-01T02:00:03Z</time>
      </trkpt>
      <trkpt lat="31.78069000" lon="35.04103000">
        <ele>472.00000</ele>
        <time>2010-01-01T02:00:17Z</time>
      </trkpt>
      <trkpt lat="31.78045000" lon="35.04086000">
        <ele>468.00000</ele>
        <time>2010-01-01T02:00:28Z</time>
      </trkpt>
      <trkpt lat="31.78025000" lon="35.04069000">
        <ele>464.00000</ele>
        <time>2010-01-01T02:00:38Z</time>
      </trkpt>
      <trkpt lat="31.78012000" lon="35.04061000">
        <ele>461.00000</ele>
        <time>2010-01-01T02:00:44Z</time>
      </trkpt>
      <trkpt lat="31.77982000" lon="35.04054000">
        <ele>463.00000</ele>
        <time>2010-01-01T02:00:56Z</time>
      </trkpt>
      <trkpt lat="31.77973000" lon="35.04048000">
        <ele>462.00000</ele>
        <time>2010-01-01T02:01:00Z</time>
      </trkpt>
      <trkpt lat="31.77972000" lon="35.04048000">
        <ele>462.00000</ele>
        <time>2010-01-01T02:01:01Z</time>
      </trkpt>
      <trkpt lat="31.77966000" lon="35.04041000">
        <ele>461.00000</ele>
        <time>2010-01-01T02:01:04Z</time>
      </trkpt>
      <trkpt lat="31.77941000" lon="35.04009000">
        <ele>454.00000</ele>
        <time>2010-01-01T02:01:19Z</time>
      </trkpt>
      <trkpt lat="31.77932000" lon="35.04002000">
        <ele>453.00000</ele>
        <time>2010-01-01T02:01:23Z</time>
      </trkpt>
      <trkpt lat="31.77908000" lon="35.03991000">
        <ele>457.00000</ele>
        <time>2010-01-01T02:01:34Z</time>
      </trkpt>
      <trkpt lat="31.77901000" lon="35.03986000">
        <ele>459.00000</ele>
        <time>2010-01-01T02:01:37Z</time>
      </trkpt>
      <trkpt lat="31.77893000" lon="35.03972000">
        <ele>460.00000</ele>
        <time>2010-01-01T02:01:43Z</time>
      </trkpt>
      <trkpt lat="31.77860000" lon="35.03863000">
        <ele>448.00000</ele>
        <time>2010-01-01T02:02:22Z</time>
      </trkpt>
      <trkpt lat="31.77846000" lon="35.03809000">
        <ele>448.00000</ele>
        <time>2010-01-01T02:02:41Z</time>
      </trkpt>
      <trkpt lat="31.77815000" lon="35.03736000">
        <ele>440.00000</ele>
        <time>2010-01-01T02:03:09Z</time>
      </trkpt>
      <trkpt lat="31.77801000" lon="35.03690000">
        <ele>437.00000</ele>
        <time>2010-01-01T02:03:26Z</time>
      </trkpt>
      <trkpt lat="31.77792000" lon="35.03668000">
        <ele>434.00000</ele>
        <time>2010-01-01T02:03:34Z</time>
      </trkpt>
      <trkpt lat="31.77777000" lon="35.03637000">
        <ele>430.00000</ele>
        <time>2010-01-01T02:03:46Z</time>
      </trkpt>
      <trkpt lat="31.77770000" lon="35.03625000">
        <ele>431.00000</ele>
        <time>2010-01-01T02:03:51Z</time>
      </trkpt>
      <trkpt lat="31.77739000" lon="35.03589000">
        <ele>437.00000</ele>
        <time>2010-01-01T02:04:08Z</time>
      </trkpt>
      <trkpt lat="31.77734000" lon="35.03579000">
        <ele>436.00000</ele>
        <time>2010-01-01T02:04:12Z</time>
      </trkpt>
      <trkpt lat="31.77727000" lon="35.03562000">
        <ele>434.00000</ele>
        <time>2010-01-01T02:04:19Z</time>
      </trkpt>
      <trkpt lat="31.77717000" lon="35.03523000">
        <ele>424.00000</ele>
        <time>2010-01-01T02:04:33Z</time>
      </trkpt>
      <trkpt lat="31.77709000" lon="35.03469000">
        <ele>419.00000</ele>
        <time>2010-01-01T02:04:51Z</time>
      </trkpt>
      <trkpt lat="31.77709000" lon="35.03468000">
        <ele>419.00000</ele>
        <time>2010-01-01T02:04:52Z</time>
      </trkpt>
      <trkpt lat="31.77700000" lon="35.03413000">
        <ele>401.00000</ele>
        <time>2010-01-01T02:05:11Z</time>
      </trkpt>
      <trkpt lat="31.77696000" lon="35.03402000">
        <ele>400.00000</ele>
        <time>2010-01-01T02:05:15Z</time>
      </trkpt>
      <trkpt lat="31.77692000" lon="35.03395000">
        <ele>400.00000</ele>
        <time>2010-01-01T02:05:18Z</time>
      </trkpt>
      <trkpt lat="31.77681000" lon="35.03385000">
        <ele>401.00000</ele>
        <time>2010-01-01T02:05:23Z</time>
      </trkpt>
      <trkpt lat="31.77657000" lon="35.03372000">
        <ele>404.00000</ele>
        <time>2010-01-01T02:05:34Z</time>
      </trkpt>
      <trkpt lat="31.77604000" lon="35.03352000">
        <ele>400.00000</ele>
        <time>2010-01-01T02:05:56Z</time>
      </trkpt>
      <trkpt lat="31.77574000" lon="35.03334000">
        <ele>396.00000</ele>
        <time>2010-01-01T02:06:10Z</time>
      </trkpt>
      <trkpt lat="31.77530000" lon="35.03322000">
        <ele>377.00000</ele>
        <time>2010-01-01T02:06:28Z</time>
      </trkpt>
      <trkpt lat="31.77508000" lon="35.03335000">
        <ele>379.00000</ele>
        <time>2010-01-01T02:06:37Z</time>
      </trkpt>
      <trkpt lat="31.77489000" lon="35.03350000">
        <ele>383.00000</ele>
        <time>2010-01-01T02:06:47Z</time>
      </trkpt>
      <trkpt lat="31.77482000" lon="35.03358000">
        <ele>385.00000</ele>
        <time>2010-01-01T02:06:51Z</time>
      </trkpt>
      <trkpt lat="31.77468000" lon="35.03385000">
        <ele>391.00000</ele>
        <time>2010-01-01T02:07:01Z</time>
      </trkpt>
      <trkpt lat="31.77461000" lon="35.03393000">
        <ele>395.00000</ele>
        <time>2010-01-01T02:07:05Z</time>
      </trkpt>
      <trkpt lat="31.77455000" lon="35.03393000">
        <ele>396.00000</ele>
        <time>2010-01-01T02:07:08Z</time>
      </trkpt>
      <trkpt lat="31.77449000" lon="35.03388000">
        <ele>396.00000</ele>
        <time>2010-01-01T02:07:11Z</time>
      </trkpt>
      <trkpt lat="31.77445000" lon="35.03381000">
        <ele>396.00000</ele>
        <time>2010-01-01T02:07:13Z</time>
      </trkpt>
      <trkpt lat="31.77443000" lon="35.03371000">
        <ele>396.00000</ele>
        <time>2010-01-01T02:07:17Z</time>
      </trkpt>
      <trkpt lat="31.77443000" lon="35.03353000">
        <ele>394.00000</ele>
        <time>2010-01-01T02:07:23Z</time>
      </trkpt>
      <trkpt lat="31.77447000" lon="35.03328000">
        <ele>391.00000</ele>
        <time>2010-01-01T02:07:32Z</time>
      </trkpt>
      <trkpt lat="31.77459000" lon="35.03275000">
        <ele>384.00000</ele>
        <time>2010-01-01T02:07:50Z</time>
      </trkpt>
      <trkpt lat="31.77469000" lon="35.03249000">
        <ele>378.00000</ele>
        <time>2010-01-01T02:08:00Z</time>
      </trkpt>
      <trkpt lat="31.77478000" lon="35.03238000">
        <ele>378.00000</ele>
        <time>2010-01-01T02:08:05Z</time>
      </trkpt>
      <trkpt lat="31.77491000" lon="35.03230000">
        <ele>375.00000</ele>
        <time>2010-01-01T02:08:11Z</time>
      </trkpt>
      <trkpt lat="31.77528000" lon="35.03217000">
        <ele>363.00000</ele>
        <time>2010-01-01T02:08:27Z</time>
      </trkpt>
      <trkpt lat="31.77559000" lon="35.03203000">
        <ele>361.00000</ele>
        <time>2010-01-01T02:08:40Z</time>
      </trkpt>
      <trkpt lat="31.77564000" lon="35.03205000">
        <ele>360.00000</ele>
        <time>2010-01-01T02:08:42Z</time>
      </trkpt>
      <trkpt lat="31.77565000" lon="35.03208000">
        <ele>359.00000</ele>
        <time>2010-01-01T02:08:43Z</time>
      </trkpt>
      <trkpt lat="31.77561000" lon="35.03216000">
        <ele>357.00000</ele>
        <time>2010-01-01T02:08:46Z</time>
      </trkpt>
      <trkpt lat="31.77547000" lon="35.03229000">
        <ele>356.00000</ele>
        <time>2010-01-01T02:08:53Z</time>
      </trkpt>
      <trkpt lat="31.77530000" lon="35.03239000">
        <ele>360.00000</ele>
        <time>2010-01-01T02:09:01Z</time>
      </trkpt>
      <trkpt lat="31.77526000" lon="35.03246000">
        <ele>360.00000</ele>
        <time>2010-01-01T02:09:04Z</time>
      </trkpt>
      <trkpt lat="31.77529000" lon="35.03250000">
        <ele>359.00000</ele>
        <time>2010-01-01T02:09:06Z</time>
      </trkpt>
      <trkpt lat="31.77535000" lon="35.03249000">
        <ele>357.00000</ele>
        <time>2010-01-01T02:09:08Z</time>
      </trkpt>
      <trkpt lat="31.77562000" lon="35.03240000">
        <ele>353.00000</ele>
        <time>2010-01-01T02:09:19Z</time>
      </trkpt>
      <trkpt lat="31.77581000" lon="35.03231000">
        <ele>353.00000</ele>
        <time>2010-01-01T02:09:28Z</time>
      </trkpt>
      <trkpt lat="31.77602000" lon="35.03217000">
        <ele>355.00000</ele>
        <time>2010-01-01T02:09:37Z</time>
      </trkpt>
      <trkpt lat="31.77615000" lon="35.03203000">
        <ele>356.00000</ele>
        <time>2010-01-01T02:09:44Z</time>
      </trkpt>
      <trkpt lat="31.77622000" lon="35.03200000">
        <ele>354.00000</ele>
        <time>2010-01-01T02:09:47Z</time>
      </trkpt>
      <trkpt lat="31.77627000" lon="35.03203000">
        <ele>352.00000</ele>
        <time>2010-01-01T02:09:50Z</time>
      </trkpt>
      <trkpt lat="31.77627000" lon="35.03210000">
        <ele>352.00000</ele>
        <time>2010-01-01T02:09:52Z</time>
      </trkpt>
      <trkpt lat="31.77625000" lon="35.03221000">
        <ele>351.00000</ele>
        <time>2010-01-01T02:09:56Z</time>
      </trkpt>
      <trkpt lat="31.77627000" lon="35.03228000">
        <ele>351.00000</ele>
        <time>2010-01-01T02:09:58Z</time>
      </trkpt>
      <trkpt lat="31.77632000" lon="35.03230000">
        <ele>350.00000</ele>
        <time>2010-01-01T02:10:00Z</time>
      </trkpt>
      <trkpt lat="31.77642000" lon="35.03226000">
        <ele>348.00000</ele>
        <time>2010-01-01T02:10:05Z</time>
      </trkpt>
      <trkpt lat="31.77653000" lon="35.03218000">
        <ele>346.00000</ele>
        <time>2010-01-01T02:10:10Z</time>
      </trkpt>
      <trkpt lat="31.77683000" lon="35.03204000">
        <ele>342.00000</ele>
        <time>2010-01-01T02:10:23Z</time>
      </trkpt>
      <trkpt lat="31.77702000" lon="35.03188000">
        <ele>338.00000</ele>
        <time>2010-01-01T02:10:32Z</time>
      </trkpt>
      <trkpt lat="31.77717000" lon="35.03154000">
        <ele>338.00000</ele>
        <time>2010-01-01T02:10:45Z</time>
      </trkpt>
      <trkpt lat="31.77724000" lon="35.03134000">
        <ele>339.00000</ele>
        <time>2010-01-01T02:10:52Z</time>
      </trkpt>
      <trkpt lat="31.77732000" lon="35.03115000">
        <ele>341.00000</ele>
        <time>2010-01-01T02:11:00Z</time>
      </trkpt>
      <trkpt lat="31.77746000" lon="35.03097000">
        <ele>338.00000</ele>
        <time>2010-01-01T02:11:08Z</time>
      </trkpt>
      <trkpt lat="31.77774000" lon="35.03074000">
        <ele>335.00000</ele>
        <time>2010-01-01T02:11:22Z</time>
      </trkpt>
      <trkpt lat="31.77788000" lon="35.03055000">
        <ele>334.00000</ele>
        <time>2010-01-01T02:11:30Z</time>
      </trkpt>
      <trkpt lat="31.77805000" lon="35.03018000">
        <ele>332.00000</ele>
        <time>2010-01-01T02:11:44Z</time>
      </trkpt>
      <trkpt lat="31.77810000" lon="35.03002000">
        <ele>332.00000</ele>
        <time>2010-01-01T02:11:50Z</time>
      </trkpt>
      <trkpt lat="31.77814000" lon="35.02964000">
        <ele>332.00000</ele>
        <time>2010-01-01T02:12:03Z</time>
      </trkpt>
      <trkpt lat="31.77816000" lon="35.02819000">
        <ele>329.00000</ele>
        <time>2010-01-01T02:12:53Z</time>
      </trkpt>
      <trkpt lat="31.77822000" lon="35.02760000">
        <ele>327.00000</ele>
        <time>2010-01-01T02:13:13Z</time>
      </trkpt>
      <trkpt lat="31.77819000" lon="35.02752000">
        <ele>326.00000</ele>
        <time>2010-01-01T02:13:16Z</time>
      </trkpt>
      <trkpt lat="31.77812000" lon="35.02744000">
        <ele>325.00000</ele>
        <time>2010-01-01T02:13:20Z</time>
      </trkpt>
      <trkpt lat="31.77754000" lon="35.02720000">
        <ele>320.00000</ele>
        <time>2010-01-01T02:13:44Z</time>
      </trkpt>
      <trkpt lat="31.77741000" lon="35.02712000">
        <ele>321.00000</ele>
        <time>2010-01-01T02:13:50Z</time>
      </trkpt>
      <trkpt lat="31.77733000" lon="35.02703000">
        <ele>320.00000</ele>
        <time>2010-01-01T02:13:55Z</time>
      </trkpt>
      <trkpt lat="31.77724000" lon="35.02690000">
        <ele>319.00000</ele>
        <time>2010-01-01T02:14:00Z</time>
      </trkpt>
      <trkpt lat="31.77714000" lon="35.02667000">
        <ele>318.00000</ele>
        <time>2010-01-01T02:14:09Z</time>
      </trkpt>
      <trkpt lat="31.77712000" lon="35.02655000">
        <ele>318.00000</ele>
        <time>2010-01-01T02:14:13Z</time>
      </trkpt>
      <trkpt lat="31.77714000" lon="35.02638000">
        <ele>316.00000</ele>
        <time>2010-01-01T02:14:19Z</time>
      </trkpt>
      <trkpt lat="31.77719000" lon="35.02627000">
        <ele>314.00000</ele>
        <time>2010-01-01T02:14:23Z</time>
      </trkpt>
      <trkpt lat="31.77726000" lon="35.02617000">
        <ele>312.00000</ele>
        <time>2010-01-01T02:14:28Z</time>
      </trkpt>
      <trkpt lat="31.77737000" lon="35.02607000">
        <ele>309.00000</ele>
        <time>2010-01-01T02:14:33Z</time>
      </trkpt>
      <trkpt lat="31.77762000" lon="35.02588000">
        <ele>302.00000</ele>
        <time>2010-01-01T02:14:45Z</time>
      </trkpt>
      <trkpt lat="31.77769000" lon="35.02578000">
        <ele>300.00000</ele>
        <time>2010-01-01T02:14:50Z</time>
      </trkpt>
      <trkpt lat="31.77776000" lon="35.02559000">
        <ele>297.00000</ele>
        <time>2010-01-01T02:14:57Z</time>
      </trkpt>
      <trkpt lat="31.77794000" lon="35.02481000">
        <ele>299.00000</ele>
        <time>2010-01-01T02:15:24Z</time>
      </trkpt>
      <trkpt lat="31.77801000" lon="35.02462000">
        <ele>297.00000</ele>
        <time>2010-01-01T02:15:31Z</time>
      </trkpt>
      <trkpt lat="31.77826000" lon="35.02427000">
        <ele>296.00000</ele>
        <time>2010-01-01T02:15:47Z</time>
      </trkpt>
      <trkpt lat="31.77857000" lon="35.02384000">
        <ele>297.00000</ele>
        <time>2010-01-01T02:16:06Z</time>
      </trkpt>
      <trkpt lat="31.77865000" lon="35.02370000">
        <ele>295.00000</ele>
        <time>2010-01-01T02:16:12Z</time>
      </trkpt>
      <trkpt lat="31.77881000" lon="35.02337000">
        <ele>293.00000</ele>
        <time>2010-01-01T02:16:25Z</time>
      </trkpt>
      <trkpt lat="31.77915000" lon="35.02252000">
        <ele>297.00000</ele>
        <time>2010-01-01T02:16:57Z</time>
      </trkpt>
      <trkpt lat="31.77936000" lon="35.02208000">
        <ele>296.00000</ele>
        <time>2010-01-01T02:17:14Z</time>
      </trkpt>
      <trkpt lat="31.77955000" lon="35.02172000">
        <ele>295.00000</ele>
        <time>2010-01-01T02:17:28Z</time>
      </trkpt>
      <trkpt lat="31.78018000" lon="35.02065000">
        <ele>288.00000</ele>
        <time>2010-01-01T02:18:13Z</time>
      </trkpt>
      <trkpt lat="31.78027000" lon="35.02049000">
        <ele>285.00000</ele>
        <time>2010-01-01T02:18:19Z</time>
      </trkpt>
      <trkpt lat="31.78049000" lon="35.02005000">
        <ele>282.00000</ele>
        <time>2010-01-01T02:18:36Z</time>
      </trkpt>
      <trkpt lat="31.78056000" lon="35.01977000">
        <ele>280.00000</ele>
        <time>2010-01-01T02:18:46Z</time>
      </trkpt>
      <trkpt lat="31.78058000" lon="35.01956000">
        <ele>282.00000</ele>
        <time>2010-01-01T02:18:54Z</time>
      </trkpt>
      <trkpt lat="31.78057000" lon="35.01934000">
        <ele>282.00000</ele>
        <time>2010-01-01T02:19:01Z</time>
      </trkpt>
      <trkpt lat="31.78050000" lon="35.01897000">
        <ele>282.00000</ele>
        <time>2010-01-01T02:19:14Z</time>
      </trkpt>
      <trkpt lat="31.78043000" lon="35.01878000">
        <ele>283.00000</ele>
        <time>2010-01-01T02:19:21Z</time>
      </trkpt>
      <trkpt lat="31.78010000" lon="35.01807000">
        <ele>281.00000</ele>
        <time>2010-01-01T02:19:49Z</time>
      </trkpt>
      <trkpt lat="31.77993000" lon="35.01785000">
        <ele>280.00000</ele>
        <time>2010-01-01T02:19:59Z</time>
      </trkpt>
      <trkpt lat="31.77938000" lon="35.01742000">
        <ele>277.00000</ele>
        <time>2010-01-01T02:20:25Z</time>
      </trkpt>
      <trkpt lat="31.77937000" lon="35.01742000">
        <ele>277.00000</ele>
        <time>2010-01-01T02:20:26Z</time>
      </trkpt>
      <trkpt lat="31.77928000" lon="35.01732000">
        <ele>278.00000</ele>
        <time>2010-01-01T02:20:30Z</time>
      </trkpt>
      <trkpt lat="31.77914000" lon="35.01713000">
        <ele>277.00000</ele>
        <time>2010-01-01T02:20:39Z</time>
      </trkpt>
      <trkpt lat="31.77906000" lon="35.01689000">
        <ele>277.00000</ele>
        <time>2010-01-01T02:20:48Z</time>
      </trkpt>
      <trkpt lat="31.77905000" lon="35.01663000">
        <ele>277.00000</ele>
        <time>2010-01-01T02:20:57Z</time>
      </trkpt>
      <trkpt lat="31.77911000" lon="35.01630000">
        <ele>275.00000</ele>
        <time>2010-01-01T02:21:08Z</time>
      </trkpt>
      <trkpt lat="31.77912000" lon="35.01617000">
        <ele>274.00000</ele>
        <time>2010-01-01T02:21:13Z</time>
      </trkpt>
      <trkpt lat="31.77918000" lon="35.01602000">
        <ele>273.00000</ele>
        <time>2010-01-01T02:21:18Z</time>
      </trkpt>
      <trkpt lat="31.77927000" lon="35.01560000">
        <ele>274.00000</ele>
        <time>2010-01-01T02:21:33Z</time>
      </trkpt>
      <trkpt lat="31.77942000" lon="35.01473000">
        <ele>266.00000</ele>
        <time>2010-01-01T02:22:03Z</time>
      </trkpt>
      <trkpt lat="31.77952000" lon="35.01446000">
        <ele>265.00000</ele>
        <time>2010-01-01T02:22:13Z</time>
      </trkpt>
      <trkpt lat="31.77964000" lon="35.01430000">
        <ele>265.00000</ele>
        <time>2010-01-01T02:22:20Z</time>
      </trkpt>
      <trkpt lat="31.77968000" lon="35.01414000">
        <ele>264.00000</ele>
        <time>2010-01-01T02:22:26Z</time>
      </trkpt>
      <trkpt lat="31.78034000" lon="35.01447000">
        <ele>271.00000</ele>
        <time>2010-01-01T02:22:55Z</time>
      </trkpt>
      <trkpt lat="31.78107000" lon="35.01471000">
        <ele>275.00000</ele>
        <time>2010-01-01T02:23:25Z</time>
      </trkpt>
      <trkpt lat="31.78230000" lon="35.01472000">
        <ele>281.00000</ele>
        <time>2010-01-01T02:24:14Z</time>
      </trkpt>
      <trkpt lat="31.78303000" lon="35.01460000">
        <ele>279.00000</ele>
        <time>2010-01-01T02:24:44Z</time>
      </trkpt>
      <trkpt lat="31.78338000" lon="35.01461000">
        <ele>280.00000</ele>
        <time>2010-01-01T02:24:58Z</time>
      </trkpt>
      <trkpt lat="31.78426000" lon="35.01458000">
        <ele>293.00000</ele>
        <time>2010-01-01T02:25:33Z</time>
      </trkpt>
      <trkpt lat="31.78523000" lon="35.01438000">
        <ele>297.00000</ele>
        <time>2010-01-01T02:26:13Z</time>
      </trkpt>
      <trkpt lat="31.78618000" lon="35.01428000">
        <ele>295.00000</ele>
        <time>2010-01-01T02:26:51Z</time>
      </trkpt>
      <trkpt lat="31.78694000" lon="35.01410000">
        <ele>299.00000</ele>
        <time>2010-01-01T02:27:22Z</time>
      </trkpt>
      <trkpt lat="31.78899000" lon="35.01411000">
        <ele>312.00000</ele>
        <time>2010-01-01T02:28:44Z</time>
      </trkpt>
      <trkpt lat="31.78937000" lon="35.01404000">
        <ele>314.00000</ele>
        <time>2010-01-01T02:28:59Z</time>
      </trkpt>
      <trkpt lat="31.78976000" lon="35.01414000">
        <ele>317.00000</ele>
        <time>2010-01-01T02:29:15Z</time>
      </trkpt>
      <trkpt lat="31.79065000" lon="35.01429000">
        <ele>318.00000</ele>
        <time>2010-01-01T02:29:51Z</time>
      </trkpt>
      <trkpt lat="31.79155000" lon="35.01447000">
        <ele>318.00000</ele>
        <time>2010-01-01T02:30:28Z</time>
      </trkpt>
      <trkpt lat="31.79302000" lon="35.01470000">
        <ele>341.00000</ele>
        <time>2010-01-01T02:31:27Z</time>
      </trkpt>
      <trkpt lat="31.79301000" lon="35.01470000">
        <ele>341.00000</ele>
        <time>2010-01-01T02:31:28Z</time>
      </trkpt>
      <trkpt lat="31.79330000" lon="35.01474000">
        <ele>341.00000</ele>
        <time>2010-01-01T02:31:39Z</time>
      </trkpt>
      <trkpt lat="31.79360000" lon="35.01486000">
        <ele>341.00000</ele>
        <time>2010-01-01T02:31:52Z</time>
      </trkpt>
      <trkpt lat="31.79372000" lon="35.01493000">
        <ele>341.00000</ele>
        <time>2010-01-01T02:31:57Z</time>
      </trkpt>
      <trkpt lat="31.79383000" lon="35.01508000">
        <ele>341.00000</ele>
        <time>2010-01-01T02:32:04Z</time>
      </trkpt>
      <trkpt lat="31.79388000" lon="35.01503000">
        <ele>341.00000</ele>
        <time>2010-01-01T02:32:07Z</time>
      </trkpt>
      <trkpt lat="31.79399000" lon="35.01503000">
        <ele>340.00000</ele>
        <time>2010-01-01T02:32:11Z</time>
      </trkpt>
      <trkpt lat="31.79421000" lon="35.01511000">
        <ele>338.00000</ele>
        <time>2010-01-01T02:32:20Z</time>
      </trkpt>
      <trkpt lat="31.79446000" lon="35.01526000">
        <ele>333.00000</ele>
        <time>2010-01-01T02:32:32Z</time>
      </trkpt>
      <trkpt lat="31.79471000" lon="35.01536000">
        <ele>332.00000</ele>
        <time>2010-01-01T02:32:42Z</time>
      </trkpt>
      <trkpt lat="31.79515000" lon="35.01546000">
        <ele>330.00000</ele>
        <time>2010-01-01T02:33:00Z</time>
      </trkpt>
      <trkpt lat="31.79519000" lon="35.01552000">
        <ele>330.00000</ele>
        <time>2010-01-01T02:33:03Z</time>
      </trkpt>
      <trkpt lat="31.79516000" lon="35.01575000">
        <ele>333.00000</ele>
        <time>2010-01-01T02:33:11Z</time>
      </trkpt>
      <trkpt lat="31.79566000" lon="35.01595000">
        <ele>338.00000</ele>
        <time>2010-01-01T02:33:32Z</time>
      </trkpt>
      <trkpt lat="31.79751000" lon="35.01606000">
        <ele>344.00000</ele>
        <time>2010-01-01T02:34:46Z</time>
      </trkpt>
      <trkpt lat="31.79849000" lon="35.01542000">
        <ele>328.00000</ele>
        <time>2010-01-01T02:35:31Z</time>
      </trkpt>
      <trkpt lat="31.79942000" lon="35.01508000">
        <ele>319.00000</ele>
        <time>2010-01-01T02:36:10Z</time>
      </trkpt>
      <trkpt lat="31.79977000" lon="35.01501000">
        <ele>314.00000</ele>
        <time>2010-01-01T02:36:24Z</time>
      </trkpt>
      <trkpt lat="31.79993000" lon="35.01494000">
        <ele>312.00000</ele>
        <time>2010-01-01T02:36:31Z</time>
      </trkpt>
      <trkpt lat="31.79997000" lon="35.01473000">
        <ele>309.00000</ele>
        <time>2010-01-01T02:36:38Z</time>
      </trkpt>
      <trkpt lat="31.80020000" lon="35.01474000">
        <ele>307.00000</ele>
        <time>2010-01-01T02:36:47Z</time>
      </trkpt>
      <trkpt lat="31.80068000" lon="35.01484000">
        <ele>308.00000</ele>
        <time>2010-01-01T02:37:07Z</time>
      </trkpt>
      <trkpt lat="31.80125000" lon="35.01504000">
        <ele>309.00000</ele>
        <time>2010-01-01T02:37:31Z</time>
      </trkpt>
      <trkpt lat="31.80244000" lon="35.01591000">
        <ele>312.00000</ele>
        <time>2010-01-01T02:38:27Z</time>
      </trkpt>
      <trkpt lat="31.80258000" lon="35.01606000">
        <ele>312.00000</ele>
        <time>2010-01-01T02:38:34Z</time>
      </trkpt>
      <trkpt lat="31.80258000" lon="35.01605000">
        <ele>312.00000</ele>
        <time>2010-01-01T02:38:35Z</time>
      </trkpt>
      <trkpt lat="31.80279000" lon="35.01628000">
        <ele>313.00000</ele>
        <time>2010-01-01T02:38:46Z</time>
      </trkpt>
      <trkpt lat="31.80478000" lon="35.01728000">
        <ele>327.00000</ele>
        <time>2010-01-01T02:40:13Z</time>
      </trkpt>
      <trkpt lat="31.80625000" lon="35.01793000">
        <ele>318.00000</ele>
        <time>2010-01-01T02:41:16Z</time>
      </trkpt>
      <trkpt lat="31.80666000" lon="35.01814000">
        <ele>319.00000</ele>
        <time>2010-01-01T02:41:33Z</time>
      </trkpt>
      <trkpt lat="31.80666000" lon="35.01813000">
        <ele>319.00000</ele>
        <time>2010-01-01T02:41:34Z</time>
      </trkpt>
      <trkpt lat="31.80751000" lon="35.01857000">
        <ele>319.00000</ele>
        <time>2010-01-01T02:42:11Z</time>
      </trkpt>
      <trkpt lat="31.80759000" lon="35.01897000">
        <ele>325.00000</ele>
        <time>2010-01-01T02:42:25Z</time>
      </trkpt>
      <trkpt lat="31.80798000" lon="35.01918000">
        <ele>324.00000</ele>
        <time>2010-01-01T02:42:42Z</time>
      </trkpt>
      <trkpt lat="31.80827000" lon="35.01958000">
        <ele>325.00000</ele>
        <time>2010-01-01T02:43:00Z</time>
      </trkpt>
      <trkpt lat="31.80919290" lon="35.02000450">
        <ele>316.00000</ele>
        <time>2010-01-01T02:43:40Z</time>
      </trkpt>
      <trkpt lat="31.80919000" lon="35.01999000">
        <ele>316.00000</ele>
        <time>2010-01-01T02:43:40Z</time>
      </trkpt>
      <trkpt lat="31.80921000" lon="35.01999000">
        <ele>316.00000</ele>
        <time>2010-01-01T02:43:41Z</time>
      </trkpt>
      <trkpt lat="31.80920000" lon="35.01982000">
        <ele>314.00000</ele>
        <time>2010-01-01T02:43:47Z</time>
      </trkpt>
      <trkpt lat="31.80923000" lon="35.01956000">
        <ele>312.00000</ele>
        <time>2010-01-01T02:43:56Z</time>
      </trkpt>
      <trkpt lat="31.80930000" lon="35.01927000">
        <ele>310.00000</ele>
        <time>2010-01-01T02:44:06Z</time>
      </trkpt>
      <trkpt lat="31.80953000" lon="35.01823000">
        <ele>300.00000</ele>
        <time>2010-01-01T02:44:42Z</time>
      </trkpt>
      <trkpt lat="31.80960000" lon="35.01777000">
        <ele>298.00000</ele>
        <time>2010-01-01T02:44:58Z</time>
      </trkpt>
      <trkpt lat="31.80969000" lon="35.01744000">
        <ele>298.00000</ele>
        <time>2010-01-01T02:45:10Z</time>
      </trkpt>
      <trkpt lat="31.81000000" lon="35.01656000">
        <ele>297.00000</ele>
        <time>2010-01-01T02:45:43Z</time>
      </trkpt>
      <trkpt lat="31.81014000" lon="35.01612000">
        <ele>295.00000</ele>
        <time>2010-01-01T02:45:59Z</time>
      </trkpt>
      <trkpt lat="31.81028000" lon="35.01577000">
        <ele>293.00000</ele>
        <time>2010-01-01T02:46:12Z</time>
      </trkpt>
      <trkpt lat="31.81034000" lon="35.01549000">
        <ele>294.00000</ele>
        <time>2010-01-01T02:46:22Z</time>
      </trkpt>
      <trkpt lat="31.81046000" lon="35.01518000">
        <ele>295.00000</ele>
        <time>2010-01-01T02:46:33Z</time>
      </trkpt>
      <trkpt lat="31.81052000" lon="35.01493000">
        <ele>295.00000</ele>
        <time>2010-01-01T02:46:42Z</time>
      </trkpt>
      <trkpt lat="31.81083000" lon="35.01439000">
        <ele>292.00000</ele>
        <time>2010-01-01T02:47:04Z</time>
      </trkpt>
      <trkpt lat="31.81129000" lon="35.01360000">
        <ele>289.00000</ele>
        <time>2010-01-01T02:47:37Z</time>
      </trkpt>
      <trkpt lat="31.81142000" lon="35.01330000">
        <ele>288.00000</ele>
        <time>2010-01-01T02:47:48Z</time>
      </trkpt>
      <trkpt lat="31.81148590" lon="35.01299850">
        <ele>288.00000</ele>
        <time>2010-01-01T02:47:59Z</time>
      </trkpt>
    </trkseg>
  </trk>
</gpx>

